QFA221 WSSS-YSSY
Flight info
| Callsign | QFA221 |
|---|---|
| Flight time | 7h 18m |
| Altitude | 37000 |
| Route | IDBUD T24 SURGA/N0474F390 M635 ATMAP A576 LEKAD/N0462F410 DCT POLEV A576 APOMA Y52 VELGI Y105 TARAL Y59 RIVET |
| Aircraft | A339/H-SADE1E2E3GHIJ3J5M1P2RWXY/LB2D1 |
Departure
| Time | 2026-05-05 09:32 |
|---|---|
| Airport | Singapore Changi Airport (WSSS) |
Arrival
| Time | 2026-05-05 16:51 |
|---|---|
| Airport | Sydney Kingsford Smith International Airport (YSSY) |
| Time | Latitude | Longitude | Altitude | Speed | Heading |
|---|---|---|---|---|---|
| 2026-05-05 08:57 | 1.36005 | 103.99226 | 49 ft | 0 kts | 293° |
| 2026-05-05 09:11 | 1.36004 | 103.99230 | 49 ft | 2 kts | 293° |
| 2026-05-05 09:11 | 1.35998 | 103.99243 | 49 ft | 2 kts | 293° |
| 2026-05-05 09:12 | 1.35994 | 103.99253 | 49 ft | 0 kts | 293° |
| 2026-05-05 09:12 | 1.35989 | 103.99264 | 49 ft | 2 kts | 283° |
| 2026-05-05 09:12 | 1.35988 | 103.99280 | 49 ft | 2 kts | 262° |
| 2026-05-05 09:12 | 1.35991 | 103.99294 | 49 ft | 2 kts | 247° |
| 2026-05-05 09:13 | 1.35998 | 103.99306 | 49 ft | 2 kts | 231° |
| 2026-05-05 09:13 | 1.36008 | 103.99316 | 49 ft | 2 kts | 215° |
| 2026-05-05 09:13 | 1.36018 | 103.99322 | 49 ft | 0 kts | 203° |
| 2026-05-05 09:13 | 1.36021 | 103.99324 | 49 ft | 0 kts | 202° |
| 2026-05-05 09:16 | 1.36020 | 103.99323 | 49 ft | 0 kts | 202° |
| 2026-05-05 09:16 | 1.36011 | 103.99319 | 49 ft | 2 kts | 202° |
| 2026-05-05 09:16 | 1.35994 | 103.99313 | 49 ft | 3 kts | 202° |
| 2026-05-05 09:17 | 1.35970 | 103.99303 | 49 ft | 5 kts | 202° |
| 2026-05-05 09:17 | 1.35939 | 103.99291 | 49 ft | 6 kts | 201° |
| 2026-05-05 09:17 | 1.35901 | 103.99284 | 49 ft | 6 kts | 173° |
| 2026-05-05 09:17 | 1.35869 | 103.99305 | 49 ft | 5 kts | 120° |
| 2026-05-05 09:18 | 1.35876 | 103.99344 | 49 ft | 7 kts | 66° |
| 2026-05-05 09:18 | 1.35891 | 103.99390 | 49 ft | 8 kts | 81° |
| 2026-05-05 09:18 | 1.35886 | 103.99445 | 49 ft | 9 kts | 107° |
| 2026-05-05 09:18 | 1.35862 | 103.99503 | 49 ft | 10 kts | 119° |
| 2026-05-05 09:19 | 1.35807 | 103.99527 | 49 ft | 10 kts | 188° |
| 2026-05-05 09:19 | 1.35743 | 103.99506 | 49 ft | 11 kts | 202° |
| 2026-05-05 09:19 | 1.35676 | 103.99479 | 49 ft | 11 kts | 202° |
| 2026-05-05 09:19 | 1.35607 | 103.99449 | 49 ft | 12 kts | 203° |
| 2026-05-05 09:20 | 1.35535 | 103.99418 | 49 ft | 12 kts | 204° |
| 2026-05-05 09:20 | 1.35461 | 103.99386 | 49 ft | 12 kts | 204° |
| 2026-05-05 09:20 | 1.35385 | 103.99353 | 49 ft | 13 kts | 201° |
| 2026-05-05 09:20 | 1.35306 | 103.99322 | 49 ft | 13 kts | 201° |
| 2026-05-05 09:21 | 1.35227 | 103.99290 | 49 ft | 13 kts | 202° |
| 2026-05-05 09:21 | 1.35145 | 103.99256 | 49 ft | 13 kts | 202° |
| 2026-05-05 09:21 | 1.35062 | 103.99222 | 49 ft | 14 kts | 202° |
| 2026-05-05 09:21 | 1.34980 | 103.99187 | 49 ft | 14 kts | 203° |
| 2026-05-05 09:22 | 1.34896 | 103.99151 | 49 ft | 14 kts | 204° |
| 2026-05-05 09:22 | 1.34809 | 103.99113 | 49 ft | 14 kts | 203° |
| 2026-05-05 09:22 | 1.34716 | 103.99076 | 49 ft | 14 kts | 202° |
| 2026-05-05 09:22 | 1.34621 | 103.99037 | 49 ft | 14 kts | 202° |
| 2026-05-05 09:23 | 1.34525 | 103.98997 | 49 ft | 14 kts | 202° |
| 2026-05-05 09:23 | 1.34428 | 103.98956 | 49 ft | 14 kts | 203° |
| 2026-05-05 09:23 | 1.34332 | 103.98916 | 49 ft | 14 kts | 203° |
| 2026-05-05 09:23 | 1.34235 | 103.98875 | 49 ft | 15 kts | 203° |
| 2026-05-05 09:24 | 1.34138 | 103.98834 | 49 ft | 15 kts | 203° |
| 2026-05-05 09:24 | 1.34040 | 103.98791 | 49 ft | 15 kts | 203° |
| 2026-05-05 09:24 | 1.33944 | 103.98749 | 49 ft | 15 kts | 204° |
| 2026-05-05 09:24 | 1.33845 | 103.98711 | 49 ft | 15 kts | 201° |
| 2026-05-05 09:25 | 1.33746 | 103.98671 | 49 ft | 15 kts | 203° |
| 2026-05-05 09:25 | 1.33649 | 103.98630 | 49 ft | 15 kts | 203° |
| 2026-05-05 09:25 | 1.33551 | 103.98589 | 49 ft | 15 kts | 203° |
| 2026-05-05 09:25 | 1.33453 | 103.98548 | 49 ft | 15 kts | 203° |
| 2026-05-05 09:26 | 1.33354 | 103.98506 | 49 ft | 15 kts | 202° |
| 2026-05-05 09:26 | 1.33255 | 103.98464 | 49 ft | 15 kts | 203° |
| 2026-05-05 09:26 | 1.33156 | 103.98423 | 49 ft | 15 kts | 203° |
| 2026-05-05 09:26 | 1.33058 | 103.98381 | 49 ft | 15 kts | 203° |
| 2026-05-05 09:27 | 1.32961 | 103.98367 | 49 ft | 9 kts | 146° |
| 2026-05-05 09:27 | 1.32950 | 103.98379 | 49 ft | 0 kts | 124° |
| 2026-05-05 09:29 | 1.32948 | 103.98381 | 49 ft | 1 kts | 124° |
| 2026-05-05 09:29 | 1.32941 | 103.98391 | 49 ft | 2 kts | 124° |
| 2026-05-05 09:29 | 1.32928 | 103.98411 | 49 ft | 4 kts | 124° |
| 2026-05-05 09:30 | 1.32913 | 103.98441 | 49 ft | 5 kts | 113° |
| 2026-05-05 09:30 | 1.32908 | 103.98482 | 49 ft | 6 kts | 80° |
| 2026-05-05 09:30 | 1.32936 | 103.98523 | 49 ft | 7 kts | 36° |
| 2026-05-05 09:30 | 1.32963 | 103.98537 | 49 ft | 0 kts | 25° |
| 2026-05-05 09:31 | 1.33013 | 103.98559 | 49 ft | 30 kts | 25° |
| 2026-05-05 09:31 | 1.33460 | 103.98750 | 49 ft | 101 kts | 23° |
| 2026-05-05 09:31 | 1.34276 | 103.99091 | 49 ft | 156 kts | 23° |
| 2026-05-05 09:32 | 1.35429 | 103.99589 | 80 ft | 200 kts | 24° |
| 2026-05-05 09:32 | 1.36725 | 104.00155 | 509 ft | 210 kts | 24° |
| 2026-05-05 09:32 | 1.38005 | 104.00715 | 1396 ft | 198 kts | 25° |
| 2026-05-05 09:32 | 1.39240 | 104.01245 | 2106 ft | 194 kts | 23° |
| 2026-05-05 09:33 | 1.40541 | 104.01772 | 2388 ft | 208 kts | 23° |
| 2026-05-05 09:33 | 1.41928 | 104.02335 | 2658 ft | 222 kts | 23° |
| 2026-05-05 09:33 | 1.43416 | 104.02950 | 2930 ft | 237 kts | 23° |
| 2026-05-05 09:33 | 1.44997 | 104.03610 | 3201 ft | 253 kts | 23° |
| 2026-05-05 09:34 | 1.46623 | 104.04416 | 3512 ft | 265 kts | 40° |
| 2026-05-05 09:34 | 1.47742 | 104.05872 | 4043 ft | 269 kts | 68° |
| 2026-05-05 09:34 | 1.48041 | 104.07700 | 4626 ft | 271 kts | 96° |
| 2026-05-05 09:34 | 1.47487 | 104.09499 | 5166 ft | 275 kts | 115° |
| 2026-05-05 09:35 | 1.46628 | 104.11233 | 5717 ft | 278 kts | 115° |
| 2026-05-05 09:35 | 1.44923 | 104.14726 | 6823 ft | 282 kts | 115° |
| 2026-05-05 09:35 | 1.44083 | 104.16501 | 7354 ft | 284 kts | 115° |
| 2026-05-05 09:36 | 1.42929 | 104.18108 | 7812 ft | 288 kts | 142° |
| 2026-05-05 09:36 | 1.41207 | 104.19130 | 8321 ft | 290 kts | 153° |
| 2026-05-05 09:36 | 1.39363 | 104.19984 | 8802 ft | 293 kts | 154° |
| 2026-05-05 09:36 | 1.37507 | 104.20847 | 9280 ft | 295 kts | 153° |
| 2026-05-05 09:37 | 1.35642 | 104.21754 | 9769 ft | 296 kts | 152° |
| 2026-05-05 09:37 | 1.33792 | 104.22687 | 10205 ft | 300 kts | 151° |
| 2026-05-05 09:37 | 1.31891 | 104.23667 | 10423 ft | 312 kts | 151° |
| 2026-05-05 09:37 | 1.29916 | 104.24701 | 10634 ft | 324 kts | 150° |
| 2026-05-05 09:38 | 1.27872 | 104.25780 | 10842 ft | 336 kts | 150° |
| 2026-05-05 09:38 | 1.25766 | 104.26893 | 11122 ft | 345 kts | 150° |
| 2026-05-05 09:38 | 1.23626 | 104.28028 | 11601 ft | 348 kts | 150° |
| 2026-05-05 09:38 | 1.21481 | 104.29166 | 12108 ft | 349 kts | 150° |
| 2026-05-05 09:39 | 1.19323 | 104.30312 | 12589 ft | 351 kts | 150° |
| 2026-05-05 09:39 | 1.17152 | 104.31468 | 13049 ft | 353 kts | 150° |
| 2026-05-05 09:39 | 1.14971 | 104.32629 | 13513 ft | 355 kts | 150° |
| 2026-05-05 09:39 | 1.12779 | 104.33797 | 13959 ft | 357 kts | 150° |
| 2026-05-05 09:40 | 1.10570 | 104.34973 | 14384 ft | 360 kts | 150° |
| 2026-05-05 09:40 | 1.08347 | 104.36156 | 14792 ft | 363 kts | 150° |
| 2026-05-05 09:40 | 1.06111 | 104.37345 | 15203 ft | 365 kts | 150° |
| 2026-05-05 09:40 | 1.03848 | 104.38548 | 15618 ft | 368 kts | 150° |
| 2026-05-05 09:41 | 1.01567 | 104.39762 | 16023 ft | 370 kts | 150° |
| 2026-05-05 09:41 | 0.99281 | 104.40980 | 16415 ft | 373 kts | 150° |
| 2026-05-05 09:41 | 0.96973 | 104.42208 | 16818 ft | 375 kts | 150° |
| 2026-05-05 09:41 | 0.94655 | 104.43440 | 17228 ft | 377 kts | 150° |
| 2026-05-05 09:42 | 0.92314 | 104.44686 | 17598 ft | 380 kts | 150° |
| 2026-05-05 09:42 | 0.89971 | 104.45936 | 17999 ft | 382 kts | 150° |
| 2026-05-05 09:42 | 0.87612 | 104.47190 | 18384 ft | 384 kts | 150° |
| 2026-05-05 09:42 | 0.85240 | 104.48452 | 18765 ft | 386 kts | 150° |
| 2026-05-05 09:43 | 0.82848 | 104.49727 | 19164 ft | 388 kts | 150° |
| 2026-05-05 09:43 | 0.80454 | 104.51002 | 19546 ft | 390 kts | 150° |
| 2026-05-05 09:43 | 0.78049 | 104.52282 | 19912 ft | 392 kts | 150° |
| 2026-05-05 09:43 | 0.75624 | 104.53574 | 20278 ft | 393 kts | 150° |
| 2026-05-05 09:44 | 0.73181 | 104.54873 | 20617 ft | 396 kts | 150° |
| 2026-05-05 09:44 | 0.70739 | 104.56173 | 20963 ft | 397 kts | 150° |
| 2026-05-05 09:44 | 0.68271 | 104.57450 | 21314 ft | 399 kts | 152° |
| 2026-05-05 09:44 | 0.65716 | 104.58575 | 21639 ft | 401 kts | 156° |
| 2026-05-05 09:45 | 0.63048 | 104.59536 | 21952 ft | 404 kts | 160° |
| 2026-05-05 09:45 | 0.60343 | 104.60357 | 22278 ft | 406 kts | 161° |
| 2026-05-05 09:45 | 0.57621 | 104.61160 | 22586 ft | 408 kts | 161° |
| 2026-05-05 09:45 | 0.54873 | 104.61971 | 22890 ft | 409 kts | 161° |
| 2026-05-05 09:46 | 0.52092 | 104.62794 | 23203 ft | 411 kts | 161° |
| 2026-05-05 09:46 | 0.49300 | 104.63762 | 23479 ft | 411 kts | 151° |
| 2026-05-05 09:46 | 0.46930 | 104.65358 | 23751 ft | 409 kts | 135° |
| 2026-05-05 09:46 | 0.45094 | 104.67509 | 24054 ft | 407 kts | 121° |
| 2026-05-05 09:47 | 0.43663 | 104.69956 | 24353 ft | 408 kts | 118° |
| 2026-05-05 09:47 | 0.42263 | 104.72432 | 24610 ft | 410 kts | 118° |
| 2026-05-05 09:47 | 0.40851 | 104.74922 | 24874 ft | 413 kts | 118° |
| 2026-05-05 09:47 | 0.39416 | 104.77434 | 25133 ft | 415 kts | 118° |
| 2026-05-05 09:48 | 0.37973 | 104.79948 | 25387 ft | 417 kts | 118° |
| 2026-05-05 09:48 | 0.36524 | 104.82465 | 25654 ft | 419 kts | 119° |
| 2026-05-05 09:48 | 0.35069 | 104.84987 | 25913 ft | 420 kts | 119° |
| 2026-05-05 09:48 | 0.33610 | 104.87517 | 26170 ft | 422 kts | 119° |
| 2026-05-05 09:49 | 0.32134 | 104.90070 | 26435 ft | 423 kts | 119° |
| 2026-05-05 09:49 | 0.30660 | 104.92624 | 26683 ft | 425 kts | 119° |
| 2026-05-05 09:49 | 0.29179 | 104.95188 | 26931 ft | 426 kts | 119° |
| 2026-05-05 09:49 | 0.27697 | 104.97754 | 27182 ft | 427 kts | 119° |
| 2026-05-05 09:50 | 0.26208 | 105.00332 | 27420 ft | 429 kts | 119° |
| 2026-05-05 09:50 | 0.24713 | 105.02919 | 27645 ft | 430 kts | 119° |
| 2026-05-05 09:50 | 0.23209 | 105.05513 | 27844 ft | 432 kts | 119° |
| 2026-05-05 09:50 | 0.21700 | 105.08114 | 28048 ft | 434 kts | 119° |
| 2026-05-05 09:51 | 0.20176 | 105.10744 | 28246 ft | 437 kts | 119° |
| 2026-05-05 09:51 | 0.18655 | 105.13372 | 28468 ft | 438 kts | 119° |
| 2026-05-05 09:51 | 0.17130 | 105.16008 | 28694 ft | 439 kts | 119° |
| 2026-05-05 09:51 | 0.15602 | 105.18650 | 28919 ft | 441 kts | 119° |
| 2026-05-05 09:52 | 0.14066 | 105.21304 | 29144 ft | 442 kts | 119° |
| 2026-05-05 09:52 | 0.12523 | 105.23971 | 29353 ft | 444 kts | 119° |
| 2026-05-05 09:52 | 0.10976 | 105.26646 | 29545 ft | 446 kts | 119° |
| 2026-05-05 09:52 | 0.09424 | 105.29329 | 29760 ft | 447 kts | 119° |
| 2026-05-05 09:53 | 0.07861 | 105.32031 | 29958 ft | 449 kts | 119° |
| 2026-05-05 09:53 | 0.06301 | 105.34730 | 30138 ft | 451 kts | 119° |
| 2026-05-05 09:53 | 0.04731 | 105.37445 | 30336 ft | 452 kts | 119° |
| 2026-05-05 09:53 | 0.03152 | 105.40176 | 30518 ft | 454 kts | 119° |
| 2026-05-05 09:54 | 0.01569 | 105.42912 | 30701 ft | 456 kts | 119° |
| 2026-05-05 09:54 | -0.00017 | 105.45656 | 30897 ft | 457 kts | 119° |
| 2026-05-05 09:54 | -0.01608 | 105.48407 | 31102 ft | 459 kts | 119° |
| 2026-05-05 09:54 | -0.03206 | 105.51170 | 31297 ft | 460 kts | 119° |
| 2026-05-05 09:55 | -0.04808 | 105.53942 | 31484 ft | 461 kts | 119° |
| 2026-05-05 09:55 | -0.06414 | 105.56719 | 31667 ft | 463 kts | 119° |
| 2026-05-05 09:55 | -0.08026 | 105.59506 | 31848 ft | 464 kts | 119° |
| 2026-05-05 09:55 | -0.09644 | 105.62303 | 32035 ft | 466 kts | 120° |
| 2026-05-05 09:56 | -0.11269 | 105.65112 | 32224 ft | 467 kts | 120° |
| 2026-05-05 09:56 | -0.12889 | 105.67915 | 32480 ft | 466 kts | 120° |
| 2026-05-05 09:56 | -0.14511 | 105.70721 | 32777 ft | 465 kts | 120° |
| 2026-05-05 09:56 | -0.16123 | 105.73509 | 33054 ft | 465 kts | 120° |
| 2026-05-05 09:57 | -0.17742 | 105.76309 | 33341 ft | 464 kts | 120° |
| 2026-05-05 09:57 | -0.19354 | 105.79095 | 33648 ft | 463 kts | 120° |
| 2026-05-05 09:57 | -0.20962 | 105.81876 | 33954 ft | 462 kts | 120° |
| 2026-05-05 09:57 | -0.22566 | 105.84649 | 34275 ft | 461 kts | 120° |
| 2026-05-05 09:58 | -0.24165 | 105.87413 | 34584 ft | 460 kts | 120° |
| 2026-05-05 09:58 | -0.25757 | 105.90166 | 34873 ft | 459 kts | 120° |
| 2026-05-05 09:58 | -0.27350 | 105.92921 | 35138 ft | 458 kts | 119° |
| 2026-05-05 09:58 | -0.28944 | 105.95677 | 35330 ft | 459 kts | 120° |
| 2026-05-05 09:59 | -0.30536 | 105.98432 | 35480 ft | 460 kts | 119° |
| 2026-05-05 09:59 | -0.32139 | 106.01205 | 35645 ft | 461 kts | 120° |
| 2026-05-05 09:59 | -0.33744 | 106.03983 | 35836 ft | 461 kts | 120° |
| 2026-05-05 09:59 | -0.35352 | 106.06765 | 36011 ft | 462 kts | 120° |
| 2026-05-05 10:00 | -0.36955 | 106.09537 | 36178 ft | 462 kts | 120° |
| 2026-05-05 10:00 | -0.38563 | 106.12318 | 36336 ft | 463 kts | 120° |
| 2026-05-05 10:00 | -0.40174 | 106.15104 | 36476 ft | 464 kts | 120° |
| 2026-05-05 10:00 | -0.41789 | 106.17897 | 36616 ft | 464 kts | 119° |
| 2026-05-05 10:01 | -0.43409 | 106.20699 | 36761 ft | 465 kts | 119° |
| 2026-05-05 10:01 | -0.45029 | 106.23501 | 36788 ft | 466 kts | 119° |
| 2026-05-05 10:01 | -0.48270 | 106.29109 | 36794 ft | 466 kts | 119° |
| 2026-05-05 10:03 | -0.58024 | 106.45998 | 36806 ft | 466 kts | 119° |
| 2026-05-05 10:03 | -0.61472 | 106.51473 | 36806 ft | 467 kts | 124° |
| 2026-05-05 10:04 | -0.65488 | 106.56572 | 36806 ft | 468 kts | 130° |
| 2026-05-05 10:04 | -0.69812 | 106.61442 | 36807 ft | 468 kts | 130° |
| 2026-05-05 10:05 | -0.74218 | 106.66389 | 36807 ft | 469 kts | 130° |
| 2026-05-05 10:05 | -0.78558 | 106.71271 | 36807 ft | 469 kts | 130° |
| 2026-05-05 10:06 | -0.82907 | 106.76171 | 36806 ft | 469 kts | 130° |
| 2026-05-05 10:06 | -0.87231 | 106.81047 | 36807 ft | 469 kts | 130° |
| 2026-05-05 10:07 | -0.91562 | 106.85930 | 36806 ft | 470 kts | 130° |
| 2026-05-05 10:07 | -0.95913 | 106.90837 | 36808 ft | 471 kts | 130° |
| 2026-05-05 10:08 | -1.00258 | 106.95736 | 36807 ft | 471 kts | 130° |
| 2026-05-05 10:08 | -1.04603 | 107.00633 | 36808 ft | 471 kts | 130° |
| 2026-05-05 10:09 | -1.08960 | 107.05545 | 36810 ft | 471 kts | 130° |
| 2026-05-05 10:09 | -1.13312 | 107.10456 | 36810 ft | 471 kts | 130° |
| 2026-05-05 10:10 | -1.17653 | 107.15354 | 36807 ft | 470 kts | 130° |
| 2026-05-05 10:10 | -1.21994 | 107.20251 | 36809 ft | 471 kts | 130° |
| 2026-05-05 10:11 | -1.26337 | 107.25152 | 36809 ft | 471 kts | 130° |
| 2026-05-05 10:11 | -1.30679 | 107.30053 | 36810 ft | 470 kts | 130° |
| 2026-05-05 10:12 | -1.35012 | 107.34946 | 36807 ft | 470 kts | 130° |
| 2026-05-05 10:12 | -1.39334 | 107.39864 | 36803 ft | 470 kts | 129° |
| 2026-05-05 10:13 | -1.43600 | 107.44809 | 36801 ft | 469 kts | 129° |
| 2026-05-05 10:13 | -1.47863 | 107.49757 | 36806 ft | 469 kts | 129° |
| 2026-05-05 10:14 | -1.52122 | 107.54693 | 36808 ft | 469 kts | 129° |
| 2026-05-05 10:14 | -1.56388 | 107.59637 | 36806 ft | 469 kts | 129° |
| 2026-05-05 10:15 | -1.60651 | 107.64576 | 36805 ft | 469 kts | 129° |
| 2026-05-05 10:15 | -1.64918 | 107.69523 | 36804 ft | 469 kts | 129° |
| 2026-05-05 10:16 | -1.69175 | 107.74458 | 36808 ft | 469 kts | 129° |
| 2026-05-05 10:16 | -1.73433 | 107.79393 | 36806 ft | 468 kts | 129° |
| 2026-05-05 10:17 | -1.77679 | 107.84316 | 36806 ft | 468 kts | 129° |
| 2026-05-05 10:17 | -1.81935 | 107.89251 | 36807 ft | 468 kts | 129° |
| 2026-05-05 10:18 | -1.86190 | 107.94188 | 36806 ft | 468 kts | 129° |
| 2026-05-05 10:18 | -1.90442 | 107.99119 | 36805 ft | 467 kts | 129° |
| 2026-05-05 10:19 | -1.94681 | 108.04036 | 36807 ft | 467 kts | 129° |
| 2026-05-05 10:19 | -1.98917 | 108.08952 | 36810 ft | 466 kts | 129° |
| 2026-05-05 10:20 | -2.03157 | 108.13877 | 36808 ft | 467 kts | 129° |
| 2026-05-05 10:20 | -2.07398 | 108.18793 | 36808 ft | 468 kts | 129° |
| 2026-05-05 10:21 | -2.11673 | 108.23736 | 36808 ft | 468 kts | 129° |
| 2026-05-05 10:21 | -2.15925 | 108.28660 | 36810 ft | 468 kts | 129° |
| 2026-05-05 10:22 | -2.20180 | 108.33591 | 36814 ft | 469 kts | 129° |
| 2026-05-05 10:22 | -2.24444 | 108.38535 | 36816 ft | 470 kts | 129° |
| 2026-05-05 10:23 | -2.28722 | 108.43495 | 36823 ft | 470 kts | 129° |
| 2026-05-05 10:23 | -2.32991 | 108.48448 | 36826 ft | 469 kts | 129° |
| 2026-05-05 10:24 | -2.37252 | 108.53393 | 36828 ft | 469 kts | 129° |
| 2026-05-05 10:24 | -2.41524 | 108.58351 | 36828 ft | 469 kts | 129° |
| 2026-05-05 10:25 | -2.45778 | 108.63291 | 36827 ft | 469 kts | 129° |
| 2026-05-05 10:25 | -2.50046 | 108.68240 | 36829 ft | 469 kts | 129° |
| 2026-05-05 10:26 | -2.54322 | 108.73170 | 36828 ft | 469 kts | 129° |
| 2026-05-05 10:26 | -2.58589 | 108.78097 | 36829 ft | 469 kts | 129° |
| 2026-05-05 10:27 | -2.62856 | 108.83028 | 36828 ft | 469 kts | 129° |
| 2026-05-05 10:27 | -2.67123 | 108.87962 | 36827 ft | 468 kts | 129° |
| 2026-05-05 10:28 | -2.71388 | 108.92895 | 36829 ft | 469 kts | 129° |
| 2026-05-05 10:28 | -2.75651 | 108.97826 | 36826 ft | 468 kts | 129° |
| 2026-05-05 10:29 | -2.79912 | 109.02759 | 36828 ft | 468 kts | 129° |
| 2026-05-05 10:29 | -2.84168 | 109.07688 | 36827 ft | 469 kts | 129° |
| 2026-05-05 10:30 | -2.88439 | 109.12630 | 36824 ft | 469 kts | 129° |
| 2026-05-05 10:30 | -2.92704 | 109.17569 | 36816 ft | 468 kts | 129° |
| 2026-05-05 10:31 | -2.96956 | 109.22500 | 36813 ft | 468 kts | 129° |
| 2026-05-05 10:31 | -3.01207 | 109.27436 | 36811 ft | 468 kts | 129° |
| 2026-05-05 10:32 | -3.05460 | 109.32376 | 36815 ft | 469 kts | 129° |
| 2026-05-05 10:32 | -3.09716 | 109.37324 | 36817 ft | 470 kts | 129° |
| 2026-05-05 10:33 | -3.13978 | 109.42277 | 36822 ft | 470 kts | 129° |
| 2026-05-05 10:33 | -3.18241 | 109.47234 | 36826 ft | 470 kts | 129° |
| 2026-05-05 10:34 | -3.22506 | 109.52193 | 36827 ft | 470 kts | 129° |
| 2026-05-05 10:34 | -3.26769 | 109.57148 | 36829 ft | 470 kts | 129° |
| 2026-05-05 10:35 | -3.31039 | 109.62116 | 36829 ft | 470 kts | 129° |
| 2026-05-05 10:35 | -3.35312 | 109.67086 | 36830 ft | 471 kts | 129° |
| 2026-05-05 10:36 | -3.39588 | 109.72061 | 36826 ft | 472 kts | 129° |
| 2026-05-05 10:36 | -3.43865 | 109.77037 | 36830 ft | 471 kts | 129° |
| 2026-05-05 10:37 | -3.48141 | 109.82013 | 36828 ft | 471 kts | 129° |
| 2026-05-05 10:37 | -3.52416 | 109.86987 | 36828 ft | 471 kts | 129° |
| 2026-05-05 10:38 | -3.56696 | 109.91972 | 36828 ft | 472 kts | 129° |
| 2026-05-05 10:38 | -3.60981 | 109.96960 | 36827 ft | 472 kts | 129° |
| 2026-05-05 10:39 | -3.65268 | 110.01952 | 36825 ft | 472 kts | 129° |
| 2026-05-05 10:39 | -3.69552 | 110.06942 | 36827 ft | 472 kts | 129° |
| 2026-05-05 10:40 | -3.73841 | 110.11940 | 36828 ft | 471 kts | 129° |
| 2026-05-05 10:40 | -3.78115 | 110.16920 | 36827 ft | 471 kts | 129° |
| 2026-05-05 10:41 | -3.82393 | 110.21906 | 36827 ft | 471 kts | 129° |
| 2026-05-05 10:41 | -3.86668 | 110.26889 | 36827 ft | 471 kts | 129° |
| 2026-05-05 10:42 | -3.93067 | 110.34359 | 36827 ft | 471 kts | 129° |
| 2026-05-05 10:43 | -3.97287 | 110.39377 | 36827 ft | 470 kts | 127° |
| 2026-05-05 10:43 | -4.01311 | 110.44560 | 36838 ft | 470 kts | 126° |
| 2026-05-05 10:44 | -4.05313 | 110.49749 | 36846 ft | 471 kts | 126° |
| 2026-05-05 10:44 | -4.09314 | 110.54935 | 36848 ft | 470 kts | 126° |
| 2026-05-05 10:45 | -4.13326 | 110.60133 | 36848 ft | 470 kts | 126° |
| 2026-05-05 10:45 | -4.17331 | 110.65326 | 36849 ft | 470 kts | 126° |
| 2026-05-05 10:46 | -4.21330 | 110.70508 | 36848 ft | 470 kts | 126° |
| 2026-05-05 10:46 | -4.25332 | 110.75696 | 36848 ft | 471 kts | 126° |
| 2026-05-05 10:47 | -4.29341 | 110.80895 | 36848 ft | 471 kts | 126° |
| 2026-05-05 10:47 | -4.33346 | 110.86089 | 36848 ft | 471 kts | 126° |
| 2026-05-05 10:48 | -4.37352 | 110.91286 | 36848 ft | 472 kts | 126° |
| 2026-05-05 10:48 | -4.41367 | 110.96494 | 36848 ft | 472 kts | 126° |
| 2026-05-05 10:49 | -4.45369 | 111.01688 | 36848 ft | 471 kts | 126° |
| 2026-05-05 10:49 | -4.49380 | 111.06899 | 36844 ft | 472 kts | 126° |
| 2026-05-05 10:50 | -4.53394 | 111.12112 | 36839 ft | 472 kts | 126° |
| 2026-05-05 10:50 | -4.57407 | 111.17327 | 36835 ft | 472 kts | 126° |
| 2026-05-05 10:51 | -4.61421 | 111.22541 | 36831 ft | 472 kts | 126° |
| 2026-05-05 10:51 | -4.65454 | 111.27746 | 36831 ft | 473 kts | 127° |
| 2026-05-05 10:52 | -4.69503 | 111.32955 | 36831 ft | 473 kts | 127° |
| 2026-05-05 10:52 | -4.73547 | 111.38170 | 36831 ft | 474 kts | 126° |
| 2026-05-05 10:53 | -4.77588 | 111.43384 | 36828 ft | 474 kts | 127° |
| 2026-05-05 10:53 | -4.81623 | 111.48593 | 36828 ft | 473 kts | 126° |
| 2026-05-05 10:54 | -4.85667 | 111.53813 | 36829 ft | 473 kts | 126° |
| 2026-05-05 10:54 | -4.89700 | 111.59024 | 36838 ft | 474 kts | 126° |
| 2026-05-05 10:55 | -4.93750 | 111.64257 | 36845 ft | 474 kts | 127° |
| 2026-05-05 10:55 | -4.97799 | 111.69490 | 36849 ft | 474 kts | 126° |
| 2026-05-05 10:56 | -5.01845 | 111.74721 | 36850 ft | 474 kts | 126° |
| 2026-05-05 10:56 | -5.05889 | 111.79946 | 36850 ft | 474 kts | 126° |
| 2026-05-05 10:57 | -5.09929 | 111.85169 | 36848 ft | 474 kts | 126° |
| 2026-05-05 10:57 | -5.14009 | 111.90446 | 36849 ft | 474 kts | 126° |
| 2026-05-05 10:58 | -5.18054 | 111.95682 | 36850 ft | 474 kts | 126° |
| 2026-05-05 10:58 | -5.22099 | 112.00916 | 36850 ft | 475 kts | 126° |
| 2026-05-05 10:59 | -5.26150 | 112.06160 | 36850 ft | 474 kts | 126° |
| 2026-05-05 10:59 | -5.30191 | 112.11393 | 36849 ft | 474 kts | 126° |
| 2026-05-05 11:00 | -5.34229 | 112.16621 | 36849 ft | 474 kts | 126° |
| 2026-05-05 11:00 | -5.38266 | 112.21849 | 36850 ft | 475 kts | 126° |
| 2026-05-05 11:01 | -5.42314 | 112.27093 | 36847 ft | 475 kts | 126° |
| 2026-05-05 11:01 | -5.46355 | 112.32330 | 36850 ft | 475 kts | 126° |
| 2026-05-05 11:02 | -5.50399 | 112.37575 | 36848 ft | 475 kts | 126° |
| 2026-05-05 11:02 | -5.54437 | 112.42808 | 36850 ft | 475 kts | 126° |
| 2026-05-05 11:03 | -5.58480 | 112.48051 | 36849 ft | 475 kts | 126° |
| 2026-05-05 11:03 | -5.62526 | 112.53298 | 36849 ft | 475 kts | 126° |
| 2026-05-05 11:04 | -5.66571 | 112.58547 | 36849 ft | 475 kts | 126° |
| 2026-05-05 11:04 | -5.70621 | 112.63805 | 36848 ft | 476 kts | 126° |
| 2026-05-05 11:05 | -5.74673 | 112.69067 | 36851 ft | 476 kts | 126° |
| 2026-05-05 11:05 | -5.78724 | 112.74327 | 36849 ft | 476 kts | 126° |
| 2026-05-05 11:06 | -5.82778 | 112.79594 | 36851 ft | 476 kts | 126° |
| 2026-05-05 11:06 | -5.86826 | 112.84852 | 36856 ft | 476 kts | 126° |
| 2026-05-05 11:07 | -5.90874 | 112.90113 | 36865 ft | 476 kts | 126° |
| 2026-05-05 11:07 | -5.94927 | 112.95383 | 36866 ft | 476 kts | 126° |
| 2026-05-05 11:08 | -5.98980 | 113.00654 | 36868 ft | 476 kts | 126° |
| 2026-05-05 11:08 | -6.03031 | 113.05925 | 36869 ft | 477 kts | 126° |
| 2026-05-05 11:09 | -6.07084 | 113.11201 | 36868 ft | 478 kts | 126° |
| 2026-05-05 11:09 | -6.11209 | 113.16573 | 36869 ft | 478 kts | 126° |
| 2026-05-05 11:10 | -6.15315 | 113.21924 | 36868 ft | 479 kts | 126° |
| 2026-05-05 11:10 | -6.19388 | 113.27230 | 36869 ft | 480 kts | 126° |
| 2026-05-05 11:11 | -6.23711 | 113.32337 | 36867 ft | 481 kts | 133° |
| 2026-05-05 11:11 | -6.28586 | 113.36956 | 36865 ft | 482 kts | 139° |
| 2026-05-05 11:12 | -6.33938 | 113.41049 | 36860 ft | 482 kts | 144° |
| 2026-05-05 11:12 | -6.39404 | 113.44973 | 36863 ft | 482 kts | 144° |
| 2026-05-05 11:13 | -6.44877 | 113.48905 | 36862 ft | 482 kts | 144° |
| 2026-05-05 11:13 | -6.50347 | 113.52850 | 36859 ft | 482 kts | 144° |
| 2026-05-05 11:14 | -6.55802 | 113.56790 | 36860 ft | 482 kts | 144° |
| 2026-05-05 11:14 | -6.61253 | 113.60729 | 36861 ft | 481 kts | 144° |
| 2026-05-05 11:15 | -6.66694 | 113.64660 | 36863 ft | 480 kts | 144° |
| 2026-05-05 11:15 | -6.72124 | 113.68586 | 36862 ft | 480 kts | 145° |
| 2026-05-05 11:16 | -6.77543 | 113.72504 | 36866 ft | 479 kts | 144° |
| 2026-05-05 11:16 | -6.82964 | 113.76427 | 36870 ft | 479 kts | 145° |
| 2026-05-05 11:17 | -6.88373 | 113.80340 | 36874 ft | 477 kts | 144° |
| 2026-05-05 11:17 | -6.93778 | 113.84256 | 36876 ft | 477 kts | 144° |
| 2026-05-05 11:18 | -6.99238 | 113.88211 | 36882 ft | 476 kts | 144° |
| 2026-05-05 11:18 | -7.04628 | 113.92112 | 36889 ft | 476 kts | 145° |
| 2026-05-05 11:19 | -7.10060 | 113.96045 | 36890 ft | 476 kts | 145° |
| 2026-05-05 11:19 | -7.15531 | 114.00010 | 36884 ft | 475 kts | 145° |
| 2026-05-05 11:20 | -7.20903 | 114.03908 | 36875 ft | 475 kts | 145° |
| 2026-05-05 11:20 | -7.26279 | 114.07809 | 36882 ft | 476 kts | 145° |
| 2026-05-05 11:21 | -7.31663 | 114.11718 | 36883 ft | 477 kts | 145° |
| 2026-05-05 11:21 | -7.37051 | 114.15630 | 36893 ft | 476 kts | 145° |
| 2026-05-05 11:22 | -7.42449 | 114.19552 | 36900 ft | 477 kts | 145° |
| 2026-05-05 11:22 | -7.47840 | 114.23470 | 36901 ft | 477 kts | 145° |
| 2026-05-05 11:23 | -7.53235 | 114.27391 | 36905 ft | 476 kts | 145° |
| 2026-05-05 11:23 | -7.58624 | 114.31311 | 36906 ft | 477 kts | 145° |
| 2026-05-05 11:24 | -7.64022 | 114.35237 | 36910 ft | 477 kts | 145° |
| 2026-05-05 11:24 | -7.69406 | 114.39155 | 36907 ft | 477 kts | 145° |
| 2026-05-05 11:25 | -7.74810 | 114.43087 | 36902 ft | 477 kts | 145° |
| 2026-05-05 11:25 | -7.80205 | 114.47014 | 36908 ft | 477 kts | 145° |
| 2026-05-05 11:26 | -7.85608 | 114.50951 | 36902 ft | 477 kts | 145° |
| 2026-05-05 11:26 | -7.91004 | 114.54881 | 36898 ft | 477 kts | 146° |
| 2026-05-05 11:27 | -7.96432 | 114.58838 | 36903 ft | 477 kts | 146° |
| 2026-05-05 11:27 | -8.01818 | 114.62764 | 36905 ft | 477 kts | 146° |
| 2026-05-05 11:28 | -8.07278 | 114.66745 | 36920 ft | 477 kts | 145° |
| 2026-05-05 11:28 | -8.12664 | 114.70676 | 36939 ft | 477 kts | 146° |
| 2026-05-05 11:29 | -8.18076 | 114.74626 | 36961 ft | 477 kts | 146° |
| 2026-05-05 11:29 | -8.23471 | 114.78563 | 36990 ft | 478 kts | 145° |
| 2026-05-05 11:30 | -8.28862 | 114.82501 | 36990 ft | 478 kts | 145° |
| 2026-05-05 11:30 | -8.34260 | 114.86445 | 36964 ft | 478 kts | 146° |
| 2026-05-05 11:31 | -8.39660 | 114.90391 | 36948 ft | 478 kts | 146° |
| 2026-05-05 11:31 | -8.45054 | 114.94335 | 36932 ft | 479 kts | 146° |
| 2026-05-05 11:32 | -8.50480 | 114.98304 | 36923 ft | 479 kts | 146° |
| 2026-05-05 11:32 | -8.55891 | 115.02263 | 36921 ft | 479 kts | 146° |
| 2026-05-05 11:33 | -8.61322 | 115.06241 | 36918 ft | 479 kts | 146° |
| 2026-05-05 11:33 | -8.66735 | 115.10207 | 36911 ft | 479 kts | 146° |
| 2026-05-05 11:34 | -8.72170 | 115.14191 | 36908 ft | 479 kts | 146° |
| 2026-05-05 11:34 | -8.77377 | 115.18455 | 36905 ft | 481 kts | 139° |
| 2026-05-05 11:35 | -8.82335 | 115.23085 | 36903 ft | 481 kts | 139° |
| 2026-05-05 11:35 | -8.87241 | 115.27705 | 36899 ft | 481 kts | 139° |
| 2026-05-05 11:36 | -8.92159 | 115.32332 | 36898 ft | 481 kts | 139° |
| 2026-05-05 11:36 | -8.97070 | 115.36949 | 36896 ft | 481 kts | 139° |
| 2026-05-05 11:37 | -9.01989 | 115.41573 | 36897 ft | 481 kts | 139° |
| 2026-05-05 11:37 | -9.06890 | 115.46183 | 36894 ft | 480 kts | 139° |
| 2026-05-05 11:38 | -9.11787 | 115.50789 | 36893 ft | 480 kts | 139° |
| 2026-05-05 11:38 | -9.16685 | 115.55397 | 36892 ft | 480 kts | 139° |
| 2026-05-05 11:39 | -9.21586 | 115.60010 | 36891 ft | 480 kts | 139° |
| 2026-05-05 11:39 | -9.26493 | 115.64632 | 36892 ft | 481 kts | 139° |
| 2026-05-05 11:40 | -9.31393 | 115.69249 | 36891 ft | 481 kts | 139° |
| 2026-05-05 11:40 | -9.36293 | 115.73866 | 36892 ft | 481 kts | 139° |
| 2026-05-05 11:41 | -9.41197 | 115.78490 | 36891 ft | 480 kts | 139° |
| 2026-05-05 11:41 | -9.46090 | 115.83106 | 36891 ft | 480 kts | 139° |
| 2026-05-05 11:42 | -9.50976 | 115.87717 | 36893 ft | 480 kts | 139° |
| 2026-05-05 11:42 | -9.55871 | 115.92338 | 36898 ft | 480 kts | 139° |
| 2026-05-05 11:43 | -9.60765 | 115.96960 | 36905 ft | 481 kts | 139° |
| 2026-05-05 11:43 | -9.65667 | 116.01592 | 36911 ft | 480 kts | 139° |
| 2026-05-05 11:44 | -9.70554 | 116.06210 | 36910 ft | 481 kts | 139° |
| 2026-05-05 11:44 | -9.75458 | 116.10847 | 36912 ft | 482 kts | 139° |
| 2026-05-05 11:45 | -9.80373 | 116.15496 | 36910 ft | 482 kts | 139° |
| 2026-05-05 11:45 | -9.85290 | 116.20149 | 36914 ft | 482 kts | 139° |
| 2026-05-05 11:46 | -9.90194 | 116.24792 | 36910 ft | 482 kts | 139° |
| 2026-05-05 11:46 | -9.95099 | 116.29438 | 36908 ft | 482 kts | 139° |
| 2026-05-05 11:47 | -10.00004 | 116.34089 | 36909 ft | 482 kts | 139° |
| 2026-05-05 11:47 | -10.04909 | 116.38740 | 36912 ft | 483 kts | 140° |
| 2026-05-05 11:48 | -10.12278 | 116.45729 | 36913 ft | 483 kts | 140° |
| 2026-05-05 11:48 | -10.17198 | 116.50401 | 36910 ft | 483 kts | 140° |
| 2026-05-05 11:49 | -10.22105 | 116.55057 | 36911 ft | 483 kts | 140° |
| 2026-05-05 11:49 | -10.27016 | 116.59721 | 36910 ft | 483 kts | 140° |
| 2026-05-05 11:50 | -10.31917 | 116.64380 | 36910 ft | 482 kts | 140° |
| 2026-05-05 11:50 | -10.36826 | 116.69049 | 36911 ft | 483 kts | 140° |
| 2026-05-05 11:51 | -10.41727 | 116.73711 | 36912 ft | 482 kts | 140° |
| 2026-05-05 11:51 | -10.46622 | 116.78371 | 36909 ft | 481 kts | 140° |
| 2026-05-05 11:52 | -10.51522 | 116.83035 | 36910 ft | 482 kts | 140° |
| 2026-05-05 11:52 | -10.56437 | 116.87714 | 36912 ft | 483 kts | 140° |
| 2026-05-05 11:53 | -10.61335 | 116.92382 | 36910 ft | 482 kts | 140° |
| 2026-05-05 11:53 | -10.66235 | 116.97052 | 36911 ft | 482 kts | 140° |
| 2026-05-05 11:54 | -10.71126 | 117.01719 | 36912 ft | 482 kts | 140° |
| 2026-05-05 11:54 | -10.76006 | 117.06378 | 36912 ft | 480 kts | 141° |
| 2026-05-05 11:55 | -10.80878 | 117.11028 | 36912 ft | 480 kts | 141° |
| 2026-05-05 11:55 | -10.85751 | 117.15683 | 36912 ft | 481 kts | 141° |
| 2026-05-05 11:56 | -10.90633 | 117.20347 | 36911 ft | 481 kts | 141° |
| 2026-05-05 11:56 | -10.95525 | 117.25024 | 36912 ft | 482 kts | 141° |
| 2026-05-05 11:57 | -11.00424 | 117.29710 | 36920 ft | 482 kts | 141° |
| 2026-05-05 11:57 | -11.05315 | 117.34390 | 36929 ft | 483 kts | 141° |
| 2026-05-05 11:58 | -11.10211 | 117.39076 | 36932 ft | 483 kts | 141° |
| 2026-05-05 11:58 | -11.15099 | 117.43759 | 36932 ft | 482 kts | 141° |
| 2026-05-05 11:59 | -11.19986 | 117.48443 | 36932 ft | 483 kts | 141° |
| 2026-05-05 11:59 | -11.24889 | 117.53144 | 36932 ft | 482 kts | 141° |
| 2026-05-05 12:00 | -11.29786 | 117.57840 | 36931 ft | 483 kts | 141° |
| 2026-05-05 12:00 | -11.34694 | 117.62551 | 36931 ft | 484 kts | 141° |
| 2026-05-05 12:01 | -11.39602 | 117.67267 | 36930 ft | 485 kts | 141° |
| 2026-05-05 12:01 | -11.44522 | 117.71995 | 36931 ft | 486 kts | 141° |
| 2026-05-05 12:02 | -11.49445 | 117.76725 | 36931 ft | 486 kts | 141° |
| 2026-05-05 12:02 | -11.54365 | 117.81458 | 36931 ft | 486 kts | 141° |
| 2026-05-05 12:03 | -11.59295 | 117.86203 | 36936 ft | 486 kts | 141° |
| 2026-05-05 12:03 | -11.64207 | 117.90932 | 36942 ft | 486 kts | 141° |
| 2026-05-05 12:04 | -11.69120 | 117.95665 | 36944 ft | 486 kts | 141° |
| 2026-05-05 12:04 | -11.74041 | 118.00406 | 36945 ft | 486 kts | 141° |
| 2026-05-05 12:05 | -11.78956 | 118.05146 | 36947 ft | 486 kts | 141° |
| 2026-05-05 12:05 | -11.83877 | 118.09895 | 36946 ft | 485 kts | 141° |
| 2026-05-05 12:06 | -11.88785 | 118.14634 | 36949 ft | 485 kts | 141° |
| 2026-05-05 12:06 | -11.93695 | 118.19378 | 36950 ft | 486 kts | 141° |
| 2026-05-05 12:07 | -11.98603 | 118.24122 | 36942 ft | 485 kts | 141° |
| 2026-05-05 12:07 | -12.03506 | 118.28856 | 36932 ft | 486 kts | 141° |
| 2026-05-05 12:08 | -12.08425 | 118.33607 | 36932 ft | 485 kts | 141° |
| 2026-05-05 12:08 | -12.13336 | 118.38358 | 36933 ft | 486 kts | 141° |
| 2026-05-05 12:09 | -12.18242 | 118.43108 | 36935 ft | 486 kts | 141° |
| 2026-05-05 12:09 | -12.23147 | 118.47859 | 36934 ft | 485 kts | 141° |
| 2026-05-05 12:10 | -12.28050 | 118.52610 | 36930 ft | 486 kts | 141° |
| 2026-05-05 12:10 | -12.32958 | 118.57370 | 36936 ft | 487 kts | 141° |
| 2026-05-05 12:11 | -12.37874 | 118.62140 | 36938 ft | 487 kts | 141° |
| 2026-05-05 12:11 | -12.42796 | 118.66918 | 36943 ft | 487 kts | 141° |
| 2026-05-05 12:12 | -12.47712 | 118.71694 | 36947 ft | 487 kts | 141° |
| 2026-05-05 12:12 | -12.52624 | 118.76469 | 36946 ft | 486 kts | 141° |
| 2026-05-05 12:13 | -12.57534 | 118.81243 | 36949 ft | 486 kts | 141° |
| 2026-05-05 12:13 | -12.62448 | 118.86024 | 36949 ft | 487 kts | 141° |
| 2026-05-05 12:14 | -12.67367 | 118.90813 | 36950 ft | 488 kts | 141° |
| 2026-05-05 12:14 | -12.72283 | 118.95604 | 36949 ft | 488 kts | 141° |
| 2026-05-05 12:15 | -12.77210 | 119.00405 | 36953 ft | 488 kts | 141° |
| 2026-05-05 12:15 | -12.82140 | 119.05214 | 36952 ft | 488 kts | 141° |
| 2026-05-05 12:16 | -12.87063 | 119.10018 | 36951 ft | 489 kts | 141° |
| 2026-05-05 12:16 | -12.91986 | 119.14823 | 36955 ft | 489 kts | 141° |
| 2026-05-05 12:17 | -12.96920 | 119.19644 | 36951 ft | 490 kts | 141° |
| 2026-05-05 12:17 | -13.01855 | 119.24467 | 36956 ft | 490 kts | 141° |
| 2026-05-05 12:18 | -13.06794 | 119.29296 | 36956 ft | 491 kts | 141° |
| 2026-05-05 12:18 | -13.11738 | 119.34135 | 36957 ft | 491 kts | 141° |
| 2026-05-05 12:19 | -13.16686 | 119.38980 | 36948 ft | 491 kts | 141° |
| 2026-05-05 12:19 | -13.21630 | 119.43824 | 36945 ft | 490 kts | 141° |
| 2026-05-05 12:20 | -13.26566 | 119.48664 | 36942 ft | 491 kts | 141° |
| 2026-05-05 12:20 | -13.31506 | 119.53511 | 36944 ft | 491 kts | 141° |
| 2026-05-05 12:21 | -13.36448 | 119.58360 | 36941 ft | 491 kts | 141° |
| 2026-05-05 12:21 | -13.41392 | 119.63215 | 36940 ft | 491 kts | 141° |
| 2026-05-05 12:22 | -13.46337 | 119.68074 | 36938 ft | 492 kts | 141° |
| 2026-05-05 12:22 | -13.51299 | 119.72951 | 36941 ft | 493 kts | 141° |
| 2026-05-05 12:23 | -13.56259 | 119.77832 | 36941 ft | 493 kts | 141° |
| 2026-05-05 12:23 | -13.61211 | 119.82708 | 36941 ft | 493 kts | 141° |
| 2026-05-05 12:24 | -13.66177 | 119.87600 | 36944 ft | 493 kts | 141° |
| 2026-05-05 12:24 | -13.71134 | 119.92488 | 36944 ft | 493 kts | 142° |
| 2026-05-05 12:25 | -13.76089 | 119.97373 | 36944 ft | 494 kts | 142° |
| 2026-05-05 12:25 | -13.81050 | 120.02268 | 36946 ft | 494 kts | 142° |
| 2026-05-05 12:26 | -13.86013 | 120.07168 | 36948 ft | 495 kts | 141° |
| 2026-05-05 12:26 | -13.90991 | 120.12086 | 36950 ft | 496 kts | 141° |
| 2026-05-05 12:27 | -13.95970 | 120.17009 | 36949 ft | 496 kts | 141° |
| 2026-05-05 12:27 | -14.00948 | 120.21935 | 36952 ft | 496 kts | 141° |
| 2026-05-05 12:28 | -14.05923 | 120.26862 | 36955 ft | 496 kts | 142° |
| 2026-05-05 12:28 | -14.10895 | 120.31787 | 36956 ft | 496 kts | 142° |
| 2026-05-05 12:29 | -14.15859 | 120.36706 | 36955 ft | 495 kts | 141° |
| 2026-05-05 12:29 | -14.20823 | 120.41630 | 36955 ft | 496 kts | 142° |
| 2026-05-05 12:30 | -14.25800 | 120.46569 | 36950 ft | 496 kts | 141° |
| 2026-05-05 12:30 | -14.30780 | 120.51514 | 36953 ft | 497 kts | 142° |
| 2026-05-05 12:31 | -14.35762 | 120.56466 | 36954 ft | 497 kts | 141° |
| 2026-05-05 12:31 | -14.40734 | 120.61411 | 36954 ft | 497 kts | 142° |
| 2026-05-05 12:32 | -14.45711 | 120.66364 | 36950 ft | 497 kts | 141° |
| 2026-05-05 12:32 | -14.50694 | 120.71325 | 36954 ft | 497 kts | 141° |
| 2026-05-05 12:33 | -14.55672 | 120.76285 | 36954 ft | 497 kts | 141° |
| 2026-05-05 12:33 | -14.60657 | 120.81256 | 36957 ft | 498 kts | 141° |
| 2026-05-05 12:34 | -14.65650 | 120.86235 | 36956 ft | 499 kts | 141° |
| 2026-05-05 12:34 | -14.70659 | 120.91236 | 36955 ft | 500 kts | 141° |
| 2026-05-05 12:35 | -14.75647 | 120.96221 | 36954 ft | 499 kts | 142° |
| 2026-05-05 12:35 | -14.80642 | 121.01214 | 36953 ft | 498 kts | 141° |
| 2026-05-05 12:36 | -14.85632 | 121.06206 | 36954 ft | 498 kts | 142° |
| 2026-05-05 12:36 | -14.90617 | 121.11196 | 36953 ft | 498 kts | 142° |
| 2026-05-05 12:37 | -14.95597 | 121.16183 | 36954 ft | 499 kts | 141° |
| 2026-05-05 12:37 | -15.00578 | 121.21175 | 36955 ft | 499 kts | 141° |
| 2026-05-05 12:38 | -15.05566 | 121.26180 | 36959 ft | 499 kts | 141° |
| 2026-05-05 12:38 | -15.10556 | 121.31191 | 36966 ft | 499 kts | 141° |
| 2026-05-05 12:39 | -15.15541 | 121.36199 | 36965 ft | 499 kts | 141° |
| 2026-05-05 12:39 | -15.20523 | 121.41207 | 36968 ft | 499 kts | 141° |
| 2026-05-05 12:40 | -15.25497 | 121.46211 | 36966 ft | 499 kts | 142° |
| 2026-05-05 12:40 | -15.30481 | 121.51226 | 36967 ft | 500 kts | 141° |
| 2026-05-05 12:41 | -15.35469 | 121.56250 | 36964 ft | 500 kts | 142° |
| 2026-05-05 12:41 | -15.40463 | 121.61283 | 36965 ft | 500 kts | 141° |
| 2026-05-05 12:42 | -15.45442 | 121.66307 | 36963 ft | 500 kts | 141° |
| 2026-05-05 12:42 | -15.50426 | 121.71339 | 36966 ft | 500 kts | 141° |
| 2026-05-05 12:43 | -15.55408 | 121.76371 | 36962 ft | 499 kts | 141° |
| 2026-05-05 12:43 | -15.60379 | 121.81397 | 36963 ft | 499 kts | 141° |
| 2026-05-05 12:44 | -15.65348 | 121.86424 | 36966 ft | 499 kts | 141° |
| 2026-05-05 12:44 | -15.70331 | 121.91467 | 36961 ft | 499 kts | 141° |
| 2026-05-05 12:45 | -15.75310 | 121.96512 | 36957 ft | 500 kts | 141° |
| 2026-05-05 12:45 | -15.80301 | 122.01571 | 36952 ft | 501 kts | 141° |
| 2026-05-05 12:46 | -15.85287 | 122.06631 | 36949 ft | 502 kts | 141° |
| 2026-05-05 12:46 | -15.90284 | 122.11702 | 36950 ft | 502 kts | 141° |
| 2026-05-05 12:47 | -15.95273 | 122.16773 | 36951 ft | 502 kts | 142° |
| 2026-05-05 12:47 | -16.00264 | 122.21849 | 36951 ft | 501 kts | 142° |
| 2026-05-05 12:48 | -16.05245 | 122.26916 | 36952 ft | 501 kts | 142° |
| 2026-05-05 12:48 | -16.10237 | 122.31999 | 36949 ft | 502 kts | 142° |
| 2026-05-05 12:49 | -16.15238 | 122.37093 | 36950 ft | 502 kts | 142° |
| 2026-05-05 12:49 | -16.20220 | 122.42176 | 36951 ft | 502 kts | 142° |
| 2026-05-05 12:50 | -16.25207 | 122.47266 | 36950 ft | 502 kts | 142° |
| 2026-05-05 12:50 | -16.30196 | 122.52362 | 36951 ft | 503 kts | 142° |
| 2026-05-05 12:51 | -16.35183 | 122.57459 | 36950 ft | 502 kts | 142° |
| 2026-05-05 12:51 | -16.40169 | 122.62559 | 36952 ft | 502 kts | 142° |
| 2026-05-05 12:52 | -16.45156 | 122.67665 | 36948 ft | 503 kts | 141° |
| 2026-05-05 12:52 | -16.50147 | 122.72776 | 36952 ft | 503 kts | 142° |
| 2026-05-05 12:53 | -16.55136 | 122.77891 | 36953 ft | 504 kts | 142° |
| 2026-05-05 12:53 | -16.60135 | 122.83017 | 36951 ft | 504 kts | 142° |
| 2026-05-05 12:54 | -16.67633 | 122.90720 | 36955 ft | 504 kts | 142° |
| 2026-05-05 12:55 | -16.72632 | 122.95861 | 36957 ft | 504 kts | 142° |
| 2026-05-05 12:55 | -16.77629 | 123.01002 | 36958 ft | 504 kts | 142° |
| 2026-05-05 12:56 | -16.82637 | 123.06158 | 36961 ft | 505 kts | 142° |
| 2026-05-05 12:56 | -16.87634 | 123.11308 | 36957 ft | 505 kts | 142° |
| 2026-05-05 12:57 | -16.92649 | 123.16479 | 36957 ft | 506 kts | 142° |
| 2026-05-05 12:57 | -16.97664 | 123.21654 | 36958 ft | 506 kts | 142° |
| 2026-05-05 12:58 | -17.02699 | 123.26853 | 36957 ft | 507 kts | 142° |
| 2026-05-05 12:58 | -17.07720 | 123.32046 | 36955 ft | 506 kts | 142° |
| 2026-05-05 12:59 | -17.12753 | 123.37252 | 36955 ft | 506 kts | 142° |
| 2026-05-05 12:59 | -17.17761 | 123.42437 | 36958 ft | 507 kts | 142° |
| 2026-05-05 13:00 | -17.25327 | 123.50281 | 36956 ft | 508 kts | 142° |
| 2026-05-05 13:01 | -17.35379 | 123.60713 | 36956 ft | 508 kts | 142° |
| 2026-05-05 13:01 | -17.40423 | 123.65954 | 36955 ft | 508 kts | 142° |
| 2026-05-05 13:02 | -17.45452 | 123.71189 | 36959 ft | 509 kts | 142° |
| 2026-05-05 13:02 | -17.50492 | 123.76438 | 36962 ft | 509 kts | 142° |
| 2026-05-05 13:03 | -17.55513 | 123.81673 | 36962 ft | 510 kts | 141° |
| 2026-05-05 13:03 | -17.60263 | 123.87279 | 36964 ft | 518 kts | 134° |
| 2026-05-05 13:04 | -17.64513 | 123.93429 | 36962 ft | 522 kts | 131° |
| 2026-05-05 13:04 | -17.68664 | 123.99668 | 36961 ft | 522 kts | 131° |
| 2026-05-05 13:05 | -17.72827 | 124.05908 | 36960 ft | 523 kts | 131° |
| 2026-05-05 13:05 | -17.77012 | 124.12161 | 36958 ft | 523 kts | 131° |
| 2026-05-05 13:06 | -17.81187 | 124.18398 | 36963 ft | 523 kts | 132° |
| 2026-05-05 13:06 | -17.85369 | 124.24642 | 36971 ft | 523 kts | 131° |
| 2026-05-05 13:07 | -17.89551 | 124.30895 | 36971 ft | 524 kts | 131° |
| 2026-05-05 13:07 | -17.93743 | 124.37171 | 36973 ft | 524 kts | 131° |
| 2026-05-05 13:08 | -17.97924 | 124.43440 | 36975 ft | 524 kts | 131° |
| 2026-05-05 13:08 | -18.02135 | 124.49752 | 36976 ft | 525 kts | 132° |
| 2026-05-05 13:09 | -18.06336 | 124.56055 | 36973 ft | 525 kts | 132° |
| 2026-05-05 13:09 | -18.10517 | 124.62341 | 36985 ft | 526 kts | 132° |
| 2026-05-05 13:10 | -18.14703 | 124.68636 | 36982 ft | 526 kts | 131° |
| 2026-05-05 13:10 | -18.18892 | 124.74943 | 36985 ft | 527 kts | 131° |
| 2026-05-05 13:11 | -18.23086 | 124.81264 | 36988 ft | 527 kts | 131° |
| 2026-05-05 13:11 | -18.27286 | 124.87602 | 36989 ft | 527 kts | 131° |
| 2026-05-05 13:12 | -18.31479 | 124.93929 | 36989 ft | 529 kts | 131° |
| 2026-05-05 13:12 | -18.35711 | 125.00326 | 36990 ft | 530 kts | 131° |
| 2026-05-05 13:13 | -18.39915 | 125.06690 | 36988 ft | 529 kts | 131° |
| 2026-05-05 13:13 | -18.44150 | 125.13106 | 36989 ft | 529 kts | 131° |
| 2026-05-05 13:14 | -18.48342 | 125.19460 | 36995 ft | 529 kts | 131° |
| 2026-05-05 13:14 | -18.52565 | 125.25868 | 37000 ft | 530 kts | 131° |
| 2026-05-05 13:15 | -18.56758 | 125.32239 | 37003 ft | 529 kts | 131° |
| 2026-05-05 13:15 | -18.60962 | 125.38628 | 36999 ft | 530 kts | 131° |
| 2026-05-05 13:16 | -18.65158 | 125.45013 | 37007 ft | 530 kts | 131° |
| 2026-05-05 13:16 | -18.69379 | 125.51444 | 37010 ft | 531 kts | 131° |
| 2026-05-05 13:17 | -18.73574 | 125.57848 | 37013 ft | 530 kts | 131° |
| 2026-05-05 13:17 | -18.77785 | 125.64278 | 37012 ft | 530 kts | 131° |
| 2026-05-05 13:18 | -18.81978 | 125.70684 | 37017 ft | 531 kts | 131° |
| 2026-05-05 13:18 | -18.86193 | 125.77129 | 37022 ft | 532 kts | 131° |
| 2026-05-05 13:19 | -18.90391 | 125.83561 | 37022 ft | 533 kts | 131° |
| 2026-05-05 13:19 | -18.94602 | 125.90017 | 37021 ft | 533 kts | 131° |
| 2026-05-05 13:20 | -18.98809 | 125.96471 | 37024 ft | 533 kts | 131° |
| 2026-05-05 13:20 | -19.03024 | 126.02948 | 37021 ft | 535 kts | 131° |
| 2026-05-05 13:21 | -19.07231 | 126.09420 | 37023 ft | 533 kts | 131° |
| 2026-05-05 13:21 | -19.11459 | 126.15923 | 37026 ft | 535 kts | 131° |
| 2026-05-05 13:22 | -19.15666 | 126.22412 | 37027 ft | 535 kts | 131° |
| 2026-05-05 13:22 | -19.19880 | 126.28914 | 37028 ft | 534 kts | 131° |
| 2026-05-05 13:23 | -19.24078 | 126.35393 | 37032 ft | 535 kts | 131° |
| 2026-05-05 13:23 | -19.28294 | 126.41910 | 37034 ft | 534 kts | 131° |
| 2026-05-05 13:24 | -19.32480 | 126.48394 | 37034 ft | 535 kts | 131° |
| 2026-05-05 13:24 | -19.36695 | 126.54925 | 37038 ft | 535 kts | 131° |
| 2026-05-05 13:25 | -19.40891 | 126.61437 | 37040 ft | 535 kts | 131° |
| 2026-05-05 13:25 | -19.45090 | 126.67955 | 37037 ft | 536 kts | 131° |
| 2026-05-05 13:26 | -19.49280 | 126.74477 | 37046 ft | 536 kts | 131° |
| 2026-05-05 13:26 | -19.53466 | 126.81002 | 37048 ft | 535 kts | 131° |
| 2026-05-05 13:27 | -19.57650 | 126.87528 | 37053 ft | 535 kts | 131° |
| 2026-05-05 13:27 | -19.61843 | 126.94077 | 37059 ft | 537 kts | 131° |
| 2026-05-05 13:28 | -19.66030 | 127.00632 | 37062 ft | 537 kts | 131° |
| 2026-05-05 13:28 | -19.70237 | 127.07216 | 37065 ft | 537 kts | 131° |
| 2026-05-05 13:29 | -19.74420 | 127.13778 | 37064 ft | 537 kts | 131° |
| 2026-05-05 13:29 | -19.78640 | 127.20394 | 37063 ft | 538 kts | 131° |
| 2026-05-05 13:30 | -19.82829 | 127.26979 | 37065 ft | 538 kts | 131° |
| 2026-05-05 13:30 | -19.87064 | 127.33635 | 37070 ft | 538 kts | 131° |
| 2026-05-05 13:31 | -19.91253 | 127.40234 | 37070 ft | 538 kts | 131° |
| 2026-05-05 13:31 | -19.95488 | 127.46910 | 37073 ft | 539 kts | 131° |
| 2026-05-05 13:32 | -19.99677 | 127.53518 | 37078 ft | 539 kts | 131° |
| 2026-05-05 13:32 | -20.03897 | 127.60186 | 37080 ft | 539 kts | 131° |
| 2026-05-05 13:33 | -20.08088 | 127.66813 | 37082 ft | 539 kts | 130° |
| 2026-05-05 13:33 | -20.12297 | 127.73478 | 37090 ft | 540 kts | 130° |
| 2026-05-05 13:34 | -20.16481 | 127.80110 | 37095 ft | 541 kts | 130° |
| 2026-05-05 13:34 | -20.20674 | 127.86763 | 37101 ft | 541 kts | 130° |
| 2026-05-05 13:35 | -20.24869 | 127.93428 | 37108 ft | 542 kts | 130° |
| 2026-05-05 13:35 | -20.29057 | 128.00092 | 37111 ft | 542 kts | 130° |
| 2026-05-05 13:36 | -20.33247 | 128.06762 | 37113 ft | 543 kts | 130° |
| 2026-05-05 13:36 | -20.37463 | 128.13484 | 37108 ft | 543 kts | 130° |
| 2026-05-05 13:37 | -20.41651 | 128.20169 | 37109 ft | 544 kts | 130° |
| 2026-05-05 13:37 | -20.45892 | 128.26946 | 37106 ft | 543 kts | 130° |
| 2026-05-05 13:38 | -20.50078 | 128.33644 | 37106 ft | 544 kts | 130° |
| 2026-05-05 13:38 | -20.54288 | 128.40385 | 37105 ft | 543 kts | 130° |
| 2026-05-05 13:39 | -20.58466 | 128.47088 | 37108 ft | 543 kts | 130° |
| 2026-05-05 13:39 | -20.62676 | 128.53842 | 37107 ft | 544 kts | 130° |
| 2026-05-05 13:40 | -20.66861 | 128.60573 | 37113 ft | 543 kts | 130° |
| 2026-05-05 13:40 | -20.71062 | 128.67332 | 37108 ft | 543 kts | 130° |
| 2026-05-05 13:41 | -20.75244 | 128.74065 | 37120 ft | 544 kts | 130° |
| 2026-05-05 13:41 | -20.79454 | 128.80855 | 37120 ft | 544 kts | 130° |
| 2026-05-05 13:42 | -20.83629 | 128.87597 | 37125 ft | 545 kts | 130° |
| 2026-05-05 13:42 | -20.87847 | 128.94417 | 37129 ft | 545 kts | 130° |
| 2026-05-05 13:43 | -20.92022 | 129.01181 | 37129 ft | 545 kts | 130° |
| 2026-05-05 13:43 | -20.96220 | 129.07982 | 37128 ft | 546 kts | 130° |
| 2026-05-05 13:44 | -21.00395 | 129.14759 | 37135 ft | 544 kts | 130° |
| 2026-05-05 13:44 | -21.04587 | 129.21568 | 37135 ft | 546 kts | 130° |
| 2026-05-05 13:45 | -21.08756 | 129.28348 | 37138 ft | 545 kts | 130° |
| 2026-05-05 13:45 | -21.12979 | 129.35223 | 37137 ft | 546 kts | 130° |
| 2026-05-05 13:46 | -21.17154 | 129.42033 | 37141 ft | 546 kts | 130° |
| 2026-05-05 13:46 | -21.21349 | 129.48883 | 37145 ft | 546 kts | 130° |
| 2026-05-05 13:47 | -21.25515 | 129.55691 | 37146 ft | 546 kts | 130° |
| 2026-05-05 13:47 | -21.29702 | 129.62542 | 37147 ft | 547 kts | 129° |
| 2026-05-05 13:48 | -21.33859 | 129.69354 | 37143 ft | 547 kts | 129° |
| 2026-05-05 13:48 | -21.38059 | 129.76243 | 37152 ft | 547 kts | 129° |
| 2026-05-05 13:49 | -21.42221 | 129.83080 | 37160 ft | 548 kts | 129° |
| 2026-05-05 13:49 | -21.46424 | 129.89995 | 37166 ft | 548 kts | 129° |
| 2026-05-05 13:50 | -21.50586 | 129.96849 | 37163 ft | 548 kts | 129° |
| 2026-05-05 13:50 | -21.54771 | 130.03752 | 37176 ft | 548 kts | 129° |
| 2026-05-05 13:51 | -21.58937 | 130.10625 | 37170 ft | 548 kts | 129° |
| 2026-05-05 13:51 | -21.63132 | 130.17560 | 37177 ft | 549 kts | 129° |
| 2026-05-05 13:52 | -21.67284 | 130.24432 | 37175 ft | 549 kts | 129° |
| 2026-05-05 13:52 | -21.71470 | 130.31370 | 37184 ft | 549 kts | 129° |
| 2026-05-05 13:53 | -21.75624 | 130.38263 | 37186 ft | 549 kts | 129° |
| 2026-05-05 13:53 | -21.79806 | 130.45211 | 37193 ft | 549 kts | 129° |
| 2026-05-05 13:54 | -21.83961 | 130.52125 | 37191 ft | 549 kts | 129° |
| 2026-05-05 13:54 | -21.88129 | 130.59068 | 37197 ft | 549 kts | 129° |
| 2026-05-05 13:55 | -21.92311 | 130.65956 | 37201 ft | 548 kts | 131° |
| 2026-05-05 13:55 | -21.96891 | 130.72521 | 37212 ft | 545 kts | 135° |
| 2026-05-05 13:56 | -22.01537 | 130.78963 | 37219 ft | 545 kts | 135° |
| 2026-05-05 13:56 | -22.06195 | 130.85447 | 37214 ft | 545 kts | 134° |
| 2026-05-05 13:57 | -22.10829 | 130.91931 | 37213 ft | 545 kts | 134° |
| 2026-05-05 13:57 | -22.15512 | 130.98502 | 37210 ft | 546 kts | 134° |
| 2026-05-05 13:58 | -22.20139 | 131.05006 | 37209 ft | 547 kts | 134° |
| 2026-05-05 13:58 | -22.24776 | 131.11537 | 37207 ft | 546 kts | 134° |
| 2026-05-05 13:59 | -22.31726 | 131.21328 | 37211 ft | 546 kts | 134° |
| 2026-05-05 14:00 | -22.37880 | 131.30017 | 37204 ft | 546 kts | 134° |
| 2026-05-05 14:00 | -22.43298 | 131.37680 | 37207 ft | 546 kts | 134° |
| 2026-05-05 14:01 | -22.47906 | 131.44206 | 37208 ft | 545 kts | 134° |
| 2026-05-05 14:01 | -22.52532 | 131.50762 | 37212 ft | 545 kts | 134° |
| 2026-05-05 14:02 | -22.57154 | 131.57320 | 37214 ft | 546 kts | 134° |
| 2026-05-05 14:02 | -22.61757 | 131.63866 | 37216 ft | 545 kts | 134° |
| 2026-05-05 14:03 | -22.66536 | 131.70663 | 37221 ft | 546 kts | 133° |
| 2026-05-05 14:03 | -22.71136 | 131.77219 | 37233 ft | 545 kts | 133° |
| 2026-05-05 14:04 | -22.75731 | 131.83778 | 37235 ft | 544 kts | 133° |
| 2026-05-05 14:04 | -22.80318 | 131.90323 | 37235 ft | 546 kts | 133° |
| 2026-05-05 14:05 | -22.84912 | 131.96894 | 37220 ft | 546 kts | 133° |
| 2026-05-05 14:05 | -22.89495 | 132.03456 | 37223 ft | 546 kts | 133° |
| 2026-05-05 14:06 | -22.94093 | 132.10051 | 37221 ft | 546 kts | 133° |
| 2026-05-05 14:06 | -22.98680 | 132.16641 | 37219 ft | 545 kts | 133° |
| 2026-05-05 14:07 | -23.03294 | 132.23268 | 37223 ft | 545 kts | 133° |
| 2026-05-05 14:07 | -23.07888 | 132.29879 | 37226 ft | 545 kts | 133° |
| 2026-05-05 14:08 | -23.12535 | 132.36575 | 37228 ft | 546 kts | 133° |
| 2026-05-05 14:08 | -23.17108 | 132.43176 | 37226 ft | 544 kts | 133° |
| 2026-05-05 14:09 | -23.21750 | 132.49882 | 37224 ft | 545 kts | 133° |
| 2026-05-05 14:09 | -23.26342 | 132.56528 | 37228 ft | 543 kts | 133° |
| 2026-05-05 14:10 | -23.31011 | 132.63293 | 37232 ft | 543 kts | 133° |
| 2026-05-05 14:10 | -23.35652 | 132.70017 | 37233 ft | 544 kts | 132° |
| 2026-05-05 14:11 | -23.40309 | 132.76787 | 37235 ft | 544 kts | 132° |
| 2026-05-05 14:11 | -23.44949 | 132.83536 | 37242 ft | 542 kts | 133° |
| 2026-05-05 14:12 | -23.49609 | 132.90322 | 37236 ft | 542 kts | 132° |
| 2026-05-05 14:12 | -23.54178 | 132.96983 | 37248 ft | 543 kts | 132° |
| 2026-05-05 14:13 | -23.58764 | 133.03682 | 37247 ft | 542 kts | 132° |
| 2026-05-05 14:13 | -23.63344 | 133.10379 | 37253 ft | 542 kts | 132° |
| 2026-05-05 14:14 | -23.68003 | 133.17201 | 37256 ft | 542 kts | 132° |
| 2026-05-05 14:14 | -23.72647 | 133.24012 | 37254 ft | 540 kts | 132° |
| 2026-05-05 14:15 | -23.77321 | 133.30874 | 37251 ft | 540 kts | 132° |
| 2026-05-05 14:15 | -23.81967 | 133.37702 | 37246 ft | 540 kts | 132° |
| 2026-05-05 14:16 | -23.86627 | 133.44557 | 37244 ft | 541 kts | 132° |
| 2026-05-05 14:16 | -23.91242 | 133.51367 | 37239 ft | 540 kts | 132° |
| 2026-05-05 14:17 | -23.95869 | 133.58196 | 37243 ft | 539 kts | 132° |
| 2026-05-05 14:17 | -24.00509 | 133.65050 | 37235 ft | 540 kts | 131° |
| 2026-05-05 14:18 | -24.05194 | 133.71986 | 37240 ft | 539 kts | 131° |
| 2026-05-05 14:18 | -24.09810 | 133.78830 | 37235 ft | 539 kts | 131° |
| 2026-05-05 14:19 | -24.14481 | 133.85766 | 37244 ft | 539 kts | 131° |
| 2026-05-05 14:19 | -24.19142 | 133.92693 | 37240 ft | 538 kts | 131° |
| 2026-05-05 14:20 | -24.23785 | 133.99601 | 37248 ft | 537 kts | 131° |
| 2026-05-05 14:20 | -24.28474 | 134.06591 | 37237 ft | 538 kts | 131° |
| 2026-05-05 14:21 | -24.33113 | 134.13519 | 37240 ft | 537 kts | 131° |
| 2026-05-05 14:21 | -24.37734 | 134.20426 | 37241 ft | 536 kts | 131° |
| 2026-05-05 14:22 | -24.42309 | 134.27272 | 37240 ft | 536 kts | 131° |
| 2026-05-05 14:22 | -24.46901 | 134.34156 | 37241 ft | 535 kts | 130° |
| 2026-05-05 14:23 | -24.51461 | 134.41005 | 37239 ft | 535 kts | 131° |
| 2026-05-05 14:23 | -24.56084 | 134.47953 | 37237 ft | 535 kts | 130° |
| 2026-05-05 14:24 | -24.60680 | 134.54867 | 37238 ft | 536 kts | 130° |
| 2026-05-05 14:24 | -24.65280 | 134.61807 | 37231 ft | 534 kts | 131° |
| 2026-05-05 14:25 | -24.69837 | 134.68684 | 37235 ft | 534 kts | 130° |
| 2026-05-05 14:25 | -24.74400 | 134.75578 | 37235 ft | 535 kts | 130° |
| 2026-05-05 14:26 | -24.78858 | 134.82331 | 37233 ft | 534 kts | 130° |
| 2026-05-05 14:26 | -24.83359 | 134.89152 | 37235 ft | 535 kts | 130° |
| 2026-05-05 14:27 | -24.87844 | 134.95966 | 37231 ft | 534 kts | 130° |
| 2026-05-05 14:27 | -24.92344 | 135.02806 | 37231 ft | 533 kts | 130° |
| 2026-05-05 14:28 | -24.96826 | 135.09632 | 37229 ft | 533 kts | 130° |
| 2026-05-05 14:28 | -25.01318 | 135.16481 | 37228 ft | 532 kts | 130° |
| 2026-05-05 14:29 | -25.05755 | 135.23252 | 37225 ft | 532 kts | 130° |
| 2026-05-05 14:29 | -25.10168 | 135.30000 | 37230 ft | 532 kts | 130° |
| 2026-05-05 14:30 | -25.14563 | 135.36735 | 37224 ft | 531 kts | 130° |
| 2026-05-05 14:30 | -25.18925 | 135.43422 | 37220 ft | 531 kts | 130° |
| 2026-05-05 14:31 | -25.23296 | 135.50132 | 37221 ft | 530 kts | 130° |
| 2026-05-05 14:31 | -25.27626 | 135.56786 | 37222 ft | 530 kts | 130° |
| 2026-05-05 14:32 | -25.31946 | 135.63443 | 37222 ft | 530 kts | 129° |
| 2026-05-05 14:32 | -25.36442 | 135.70373 | 37215 ft | 529 kts | 129° |
| 2026-05-05 14:33 | -25.40896 | 135.77252 | 37220 ft | 529 kts | 129° |
| 2026-05-05 14:33 | -25.45423 | 135.84255 | 37217 ft | 530 kts | 129° |
| 2026-05-05 14:34 | -25.49978 | 135.91310 | 37214 ft | 529 kts | 129° |
| 2026-05-05 14:34 | -25.54510 | 135.98339 | 37215 ft | 530 kts | 129° |
| 2026-05-05 14:35 | -25.59146 | 136.05538 | 37221 ft | 529 kts | 129° |
| 2026-05-05 14:35 | -25.63650 | 136.12551 | 37220 ft | 529 kts | 129° |
| 2026-05-05 14:36 | -25.67964 | 136.19271 | 37222 ft | 529 kts | 129° |
| 2026-05-05 14:36 | -25.72239 | 136.25945 | 37218 ft | 527 kts | 129° |
| 2026-05-05 14:37 | -25.76519 | 136.32630 | 37220 ft | 528 kts | 129° |
| 2026-05-05 14:37 | -25.80791 | 136.39317 | 37216 ft | 528 kts | 129° |
| 2026-05-05 14:38 | -25.85054 | 136.45994 | 37221 ft | 528 kts | 129° |
| 2026-05-05 14:38 | -25.89311 | 136.52678 | 37217 ft | 527 kts | 129° |
| 2026-05-05 14:39 | -25.93554 | 136.59347 | 37215 ft | 526 kts | 129° |
| 2026-05-05 14:39 | -25.97773 | 136.65987 | 37213 ft | 526 kts | 128° |
| 2026-05-05 14:40 | -26.02004 | 136.72655 | 37216 ft | 526 kts | 128° |
| 2026-05-05 14:40 | -26.06228 | 136.79321 | 37213 ft | 527 kts | 128° |
| 2026-05-05 14:41 | -26.10482 | 136.86047 | 37213 ft | 527 kts | 128° |
| 2026-05-05 14:41 | -26.14707 | 136.92734 | 37206 ft | 527 kts | 128° |
| 2026-05-05 14:42 | -26.18921 | 136.99416 | 37206 ft | 527 kts | 128° |
| 2026-05-05 14:42 | -26.23150 | 137.06135 | 37215 ft | 527 kts | 128° |
| 2026-05-05 14:43 | -26.27368 | 137.12838 | 37212 ft | 527 kts | 128° |
| 2026-05-05 14:43 | -26.31593 | 137.19561 | 37213 ft | 527 kts | 128° |
| 2026-05-05 14:44 | -26.35812 | 137.26290 | 37204 ft | 527 kts | 128° |
| 2026-05-05 14:44 | -26.40008 | 137.32996 | 37212 ft | 527 kts | 128° |
| 2026-05-05 14:45 | -26.44201 | 137.39703 | 37219 ft | 526 kts | 128° |
| 2026-05-05 14:45 | -26.48388 | 137.46406 | 37222 ft | 526 kts | 128° |
| 2026-05-05 14:46 | -26.52580 | 137.53130 | 37215 ft | 527 kts | 128° |
| 2026-05-05 14:46 | -26.56766 | 137.59856 | 37216 ft | 526 kts | 128° |
| 2026-05-05 14:47 | -26.61006 | 137.66677 | 37209 ft | 525 kts | 127° |
| 2026-05-05 14:47 | -26.65171 | 137.73388 | 37204 ft | 526 kts | 127° |
| 2026-05-05 14:48 | -26.69339 | 137.80116 | 37208 ft | 525 kts | 127° |
| 2026-05-05 14:48 | -26.73500 | 137.86838 | 37205 ft | 525 kts | 127° |
| 2026-05-05 14:49 | -26.77662 | 137.93576 | 37204 ft | 525 kts | 127° |
| 2026-05-05 14:49 | -26.81813 | 138.00307 | 37201 ft | 525 kts | 127° |
| 2026-05-05 14:50 | -26.85972 | 138.07061 | 37208 ft | 525 kts | 127° |
| 2026-05-05 14:50 | -26.90115 | 138.13798 | 37203 ft | 525 kts | 127° |
| 2026-05-05 14:51 | -26.94420 | 138.20415 | 37200 ft | 523 kts | 131° |
| 2026-05-05 14:51 | -26.98894 | 138.26844 | 37165 ft | 525 kts | 131° |
| 2026-05-05 14:52 | -27.03383 | 138.33289 | 37199 ft | 525 kts | 131° |
| 2026-05-05 14:52 | -27.07867 | 138.39761 | 37209 ft | 525 kts | 131° |
| 2026-05-05 14:53 | -27.12427 | 138.46356 | 37204 ft | 525 kts | 131° |
| 2026-05-05 14:53 | -27.16894 | 138.52831 | 37203 ft | 525 kts | 131° |
| 2026-05-05 14:54 | -27.21373 | 138.59335 | 37215 ft | 525 kts | 131° |
| 2026-05-05 14:54 | -27.25847 | 138.65837 | 37204 ft | 524 kts | 131° |
| 2026-05-05 14:55 | -27.30383 | 138.72438 | 37205 ft | 525 kts | 130° |
| 2026-05-05 14:55 | -27.34831 | 138.78929 | 37209 ft | 524 kts | 131° |
| 2026-05-05 14:56 | -27.39289 | 138.85440 | 37205 ft | 525 kts | 131° |
| 2026-05-05 14:56 | -27.43747 | 138.91955 | 37201 ft | 525 kts | 131° |
| 2026-05-05 14:57 | -27.48199 | 138.98479 | 37203 ft | 525 kts | 131° |
| 2026-05-05 14:57 | -27.52657 | 139.05017 | 37210 ft | 525 kts | 131° |
| 2026-05-05 14:58 | -27.57103 | 139.11547 | 37211 ft | 524 kts | 131° |
| 2026-05-05 14:58 | -27.61542 | 139.18078 | 37206 ft | 524 kts | 131° |
| 2026-05-05 14:59 | -27.65989 | 139.24629 | 37218 ft | 524 kts | 131° |
| 2026-05-05 14:59 | -27.70435 | 139.31187 | 37198 ft | 524 kts | 131° |
| 2026-05-05 15:00 | -27.74137 | 139.36658 | 37186 ft | 523 kts | 131° |
| 2026-05-05 15:00 | -27.79331 | 139.44347 | 37186 ft | 523 kts | 131° |
| 2026-05-05 15:01 | -27.83774 | 139.50933 | 37185 ft | 522 kts | 131° |
| 2026-05-05 15:01 | -27.88207 | 139.57512 | 37185 ft | 523 kts | 131° |
| 2026-05-05 15:02 | -27.92655 | 139.64127 | 37192 ft | 523 kts | 131° |
| 2026-05-05 15:02 | -27.97141 | 139.70808 | 37192 ft | 523 kts | 131° |
| 2026-05-05 15:03 | -28.01580 | 139.77428 | 37202 ft | 524 kts | 131° |
| 2026-05-05 15:03 | -28.06048 | 139.84100 | 37204 ft | 524 kts | 131° |
| 2026-05-05 15:04 | -28.10559 | 139.90852 | 37198 ft | 523 kts | 131° |
| 2026-05-05 15:04 | -28.15001 | 139.97505 | 37203 ft | 524 kts | 131° |
| 2026-05-05 15:05 | -28.21616 | 140.07438 | 37205 ft | 523 kts | 131° |
| 2026-05-05 15:06 | -28.26064 | 140.14128 | 37212 ft | 523 kts | 131° |
| 2026-05-05 15:06 | -28.30607 | 140.20971 | 37208 ft | 522 kts | 130° |
| 2026-05-05 15:07 | -28.35106 | 140.27761 | 37203 ft | 521 kts | 130° |
| 2026-05-05 15:07 | -28.39521 | 140.34436 | 37193 ft | 521 kts | 130° |
| 2026-05-05 15:08 | -28.44047 | 140.41288 | 37192 ft | 521 kts | 130° |
| 2026-05-05 15:08 | -28.48533 | 140.48089 | 37191 ft | 520 kts | 130° |
| 2026-05-05 15:09 | -28.53034 | 140.54924 | 37191 ft | 521 kts | 130° |
| 2026-05-05 15:09 | -28.57466 | 140.61669 | 37194 ft | 521 kts | 130° |
| 2026-05-05 15:10 | -28.61932 | 140.68473 | 37185 ft | 521 kts | 130° |
| 2026-05-05 15:10 | -28.66358 | 140.75226 | 37192 ft | 521 kts | 130° |
| 2026-05-05 15:11 | -28.70840 | 140.82079 | 37189 ft | 520 kts | 130° |
| 2026-05-05 15:11 | -28.75273 | 140.88865 | 37193 ft | 521 kts | 130° |
| 2026-05-05 15:12 | -28.79723 | 140.95689 | 37192 ft | 520 kts | 130° |
| 2026-05-05 15:12 | -28.84141 | 141.02472 | 37198 ft | 520 kts | 130° |
| 2026-05-05 15:13 | -28.88615 | 141.09357 | 37196 ft | 520 kts | 130° |
| 2026-05-05 15:13 | -28.93064 | 141.16213 | 37196 ft | 520 kts | 130° |
| 2026-05-05 15:14 | -28.97488 | 141.23044 | 37201 ft | 519 kts | 130° |
| 2026-05-05 15:14 | -29.01882 | 141.29835 | 37200 ft | 519 kts | 130° |
| 2026-05-05 15:15 | -29.06293 | 141.36666 | 37199 ft | 519 kts | 130° |
| 2026-05-05 15:15 | -29.10730 | 141.43547 | 37199 ft | 520 kts | 130° |
| 2026-05-05 15:16 | -29.15145 | 141.50406 | 37200 ft | 519 kts | 129° |
| 2026-05-05 15:16 | -29.19519 | 141.57213 | 37198 ft | 519 kts | 130° |
| 2026-05-05 15:17 | -29.23939 | 141.64105 | 37207 ft | 519 kts | 130° |
| 2026-05-05 15:17 | -29.28351 | 141.70992 | 37206 ft | 518 kts | 129° |
| 2026-05-05 15:18 | -29.32775 | 141.77912 | 37204 ft | 518 kts | 129° |
| 2026-05-05 15:18 | -29.37158 | 141.84775 | 37205 ft | 519 kts | 129° |
| 2026-05-05 15:19 | -29.41557 | 141.91678 | 37208 ft | 519 kts | 129° |
| 2026-05-05 15:19 | -29.45931 | 141.98556 | 37211 ft | 518 kts | 129° |
| 2026-05-05 15:20 | -29.50290 | 142.05419 | 37209 ft | 518 kts | 129° |
| 2026-05-05 15:20 | -29.54606 | 142.12229 | 37210 ft | 517 kts | 129° |
| 2026-05-05 15:21 | -29.58901 | 142.19009 | 37205 ft | 517 kts | 129° |
| 2026-05-05 15:21 | -29.63250 | 142.25889 | 37208 ft | 517 kts | 129° |
| 2026-05-05 15:22 | -29.67632 | 142.32834 | 37211 ft | 517 kts | 129° |
| 2026-05-05 15:22 | -29.72122 | 142.39967 | 37212 ft | 517 kts | 129° |
| 2026-05-05 15:23 | -29.76731 | 142.47297 | 37212 ft | 517 kts | 129° |
| 2026-05-05 15:23 | -29.81164 | 142.54360 | 37214 ft | 516 kts | 129° |
| 2026-05-05 15:24 | -29.85653 | 142.61523 | 37215 ft | 517 kts | 129° |
| 2026-05-05 15:24 | -29.90226 | 142.68748 | 37207 ft | 516 kts | 130° |
| 2026-05-05 15:25 | -29.95191 | 142.75852 | 37211 ft | 515 kts | 132° |
| 2026-05-05 15:25 | -29.99925 | 142.82541 | 37216 ft | 515 kts | 132° |
| 2026-05-05 15:26 | -30.04565 | 142.89124 | 37219 ft | 515 kts | 132° |
| 2026-05-05 15:26 | -30.09156 | 142.95659 | 37217 ft | 514 kts | 132° |
| 2026-05-05 15:27 | -30.13958 | 143.02507 | 37208 ft | 514 kts | 131° |
| 2026-05-05 15:27 | -30.18745 | 143.09352 | 37201 ft | 514 kts | 131° |
| 2026-05-05 15:28 | -30.23540 | 143.16218 | 37202 ft | 513 kts | 131° |
| 2026-05-05 15:28 | -30.28258 | 143.22987 | 37201 ft | 513 kts | 131° |
| 2026-05-05 15:29 | -30.32831 | 143.29559 | 37197 ft | 513 kts | 131° |
| 2026-05-05 15:29 | -30.37374 | 143.36096 | 37193 ft | 513 kts | 131° |
| 2026-05-05 15:30 | -30.41926 | 143.42658 | 37194 ft | 512 kts | 131° |
| 2026-05-05 15:30 | -30.46429 | 143.49161 | 37195 ft | 512 kts | 131° |
| 2026-05-05 15:31 | -30.50943 | 143.55689 | 37191 ft | 511 kts | 131° |
| 2026-05-05 15:31 | -30.55473 | 143.62252 | 37190 ft | 511 kts | 131° |
| 2026-05-05 15:32 | -30.60040 | 143.68876 | 37189 ft | 512 kts | 130° |
| 2026-05-05 15:32 | -30.64535 | 143.75411 | 37192 ft | 512 kts | 130° |
| 2026-05-05 15:33 | -30.69034 | 143.81963 | 37192 ft | 511 kts | 130° |
| 2026-05-05 15:33 | -30.73521 | 143.88508 | 37188 ft | 511 kts | 130° |
| 2026-05-05 15:34 | -30.77998 | 143.95050 | 37195 ft | 510 kts | 130° |
| 2026-05-05 15:34 | -30.82465 | 144.01583 | 37193 ft | 510 kts | 130° |
| 2026-05-05 15:35 | -30.86942 | 144.08142 | 37192 ft | 511 kts | 130° |
| 2026-05-05 15:35 | -30.91472 | 144.14795 | 37194 ft | 510 kts | 130° |
| 2026-05-05 15:36 | -30.95945 | 144.21376 | 37194 ft | 510 kts | 130° |
| 2026-05-05 15:36 | -31.00381 | 144.27911 | 37194 ft | 509 kts | 130° |
| 2026-05-05 15:37 | -31.04832 | 144.34478 | 37193 ft | 509 kts | 130° |
| 2026-05-05 15:37 | -31.09247 | 144.41002 | 37198 ft | 508 kts | 130° |
| 2026-05-05 15:38 | -31.13700 | 144.47595 | 37195 ft | 508 kts | 130° |
| 2026-05-05 15:38 | -31.18093 | 144.54109 | 37192 ft | 507 kts | 130° |
| 2026-05-05 15:39 | -31.22513 | 144.60676 | 37199 ft | 506 kts | 130° |
| 2026-05-05 15:39 | -31.26949 | 144.67277 | 37184 ft | 506 kts | 129° |
| 2026-05-05 15:40 | -31.31357 | 144.73848 | 37189 ft | 507 kts | 129° |
| 2026-05-05 15:40 | -31.35781 | 144.80453 | 37187 ft | 506 kts | 129° |
| 2026-05-05 15:41 | -31.40213 | 144.87084 | 37184 ft | 506 kts | 129° |
| 2026-05-05 15:41 | -31.44633 | 144.93706 | 37190 ft | 506 kts | 129° |
| 2026-05-05 15:42 | -31.49036 | 145.00313 | 37188 ft | 505 kts | 129° |
| 2026-05-05 15:42 | -31.53446 | 145.06942 | 37188 ft | 506 kts | 129° |
| 2026-05-05 15:43 | -31.57854 | 145.13581 | 37190 ft | 506 kts | 129° |
| 2026-05-05 15:43 | -31.62266 | 145.20235 | 37186 ft | 505 kts | 129° |
| 2026-05-05 15:44 | -31.66701 | 145.26938 | 37182 ft | 504 kts | 129° |
| 2026-05-05 15:44 | -31.71092 | 145.33586 | 37186 ft | 504 kts | 129° |
| 2026-05-05 15:45 | -31.75505 | 145.40279 | 37188 ft | 504 kts | 129° |
| 2026-05-05 15:45 | -31.79862 | 145.46896 | 37185 ft | 504 kts | 129° |
| 2026-05-05 15:46 | -31.84250 | 145.53572 | 37192 ft | 504 kts | 129° |
| 2026-05-05 15:46 | -31.88584 | 145.60182 | 37182 ft | 503 kts | 129° |
| 2026-05-05 15:47 | -31.93047 | 145.66996 | 37184 ft | 503 kts | 129° |
| 2026-05-05 15:47 | -31.97493 | 145.73797 | 37187 ft | 504 kts | 129° |
| 2026-05-05 15:48 | -32.01943 | 145.80618 | 37182 ft | 503 kts | 129° |
| 2026-05-05 15:48 | -32.06360 | 145.87399 | 37181 ft | 504 kts | 129° |
| 2026-05-05 15:49 | -32.10814 | 145.94249 | 37183 ft | 504 kts | 129° |
| 2026-05-05 15:49 | -32.15238 | 146.01066 | 37177 ft | 503 kts | 128° |
| 2026-05-05 15:50 | -32.19640 | 146.07861 | 37177 ft | 502 kts | 128° |
| 2026-05-05 15:50 | -32.24085 | 146.14733 | 37172 ft | 502 kts | 128° |
| 2026-05-05 15:51 | -32.28507 | 146.21585 | 37183 ft | 502 kts | 128° |
| 2026-05-05 15:51 | -32.32950 | 146.28481 | 37177 ft | 501 kts | 128° |
| 2026-05-05 15:52 | -32.37365 | 146.35345 | 37181 ft | 502 kts | 128° |
| 2026-05-05 15:52 | -32.41788 | 146.42234 | 37184 ft | 502 kts | 128° |
| 2026-05-05 15:53 | -32.46209 | 146.49135 | 37177 ft | 502 kts | 128° |
| 2026-05-05 15:53 | -32.50663 | 146.56096 | 37172 ft | 502 kts | 129° |
| 2026-05-05 15:54 | -32.55090 | 146.63029 | 37185 ft | 503 kts | 129° |
| 2026-05-05 15:54 | -32.59568 | 146.70056 | 37177 ft | 502 kts | 128° |
| 2026-05-05 15:55 | -32.63964 | 146.76965 | 37180 ft | 502 kts | 128° |
| 2026-05-05 15:55 | -32.68336 | 146.83852 | 37179 ft | 502 kts | 128° |
| 2026-05-05 15:56 | -32.72725 | 146.90777 | 37184 ft | 502 kts | 128° |
| 2026-05-05 15:56 | -32.77122 | 146.97728 | 37184 ft | 501 kts | 128° |
| 2026-05-05 15:57 | -32.81508 | 147.04674 | 37179 ft | 502 kts | 128° |
| 2026-05-05 15:57 | -32.85916 | 147.11669 | 37192 ft | 502 kts | 128° |
| 2026-05-05 15:58 | -32.90283 | 147.18612 | 37190 ft | 502 kts | 128° |
| 2026-05-05 15:58 | -32.94652 | 147.25569 | 37187 ft | 503 kts | 128° |
| 2026-05-05 15:59 | -32.99046 | 147.32581 | 37193 ft | 502 kts | 128° |
| 2026-05-05 15:59 | -33.03416 | 147.39565 | 37196 ft | 502 kts | 128° |
| 2026-05-05 16:00 | -33.07775 | 147.46549 | 37184 ft | 502 kts | 128° |
| 2026-05-05 16:00 | -33.12157 | 147.53579 | 37191 ft | 502 kts | 128° |
| 2026-05-05 16:01 | -33.16478 | 147.60526 | 37195 ft | 501 kts | 128° |
| 2026-05-05 16:01 | -33.20860 | 147.67584 | 37183 ft | 501 kts | 127° |
| 2026-05-05 16:02 | -33.25217 | 147.74615 | 37192 ft | 502 kts | 127° |
| 2026-05-05 16:02 | -33.29529 | 147.81585 | 37197 ft | 501 kts | 127° |
| 2026-05-05 16:03 | -33.33883 | 147.88643 | 37196 ft | 502 kts | 128° |
| 2026-05-05 16:03 | -33.38450 | 147.95425 | 37193 ft | 501 kts | 133° |
| 2026-05-05 16:04 | -33.43371 | 148.01825 | 37198 ft | 500 kts | 135° |
| 2026-05-05 16:04 | -33.48314 | 148.08201 | 37200 ft | 500 kts | 134° |
| 2026-05-05 16:05 | -33.53291 | 148.14654 | 37194 ft | 501 kts | 134° |
| 2026-05-05 16:05 | -33.58239 | 148.21096 | 37194 ft | 501 kts | 134° |
| 2026-05-05 16:06 | -33.63175 | 148.27536 | 37191 ft | 500 kts | 134° |
| 2026-05-05 16:06 | -33.68105 | 148.33983 | 37193 ft | 501 kts | 134° |
| 2026-05-05 16:07 | -33.73054 | 148.40464 | 37194 ft | 500 kts | 134° |
| 2026-05-05 16:07 | -33.78016 | 148.46974 | 37191 ft | 501 kts | 134° |
| 2026-05-05 16:08 | -33.83013 | 148.53545 | 37198 ft | 500 kts | 134° |
| 2026-05-05 16:08 | -33.87961 | 148.60061 | 37187 ft | 499 kts | 134° |
| 2026-05-05 16:09 | -33.92917 | 148.66601 | 37191 ft | 500 kts | 134° |
| 2026-05-05 16:09 | -33.97900 | 148.73188 | 37188 ft | 499 kts | 134° |
| 2026-05-05 16:10 | -34.02807 | 148.79687 | 37192 ft | 500 kts | 134° |
| 2026-05-05 16:10 | -34.07764 | 148.86264 | 37185 ft | 500 kts | 134° |
| 2026-05-05 16:11 | -34.12713 | 148.92842 | 37187 ft | 500 kts | 133° |
| 2026-05-05 16:12 | -34.22683 | 149.06135 | 37186 ft | 499 kts | 134° |
| 2026-05-05 16:13 | -34.35398 | 149.23159 | 37189 ft | 500 kts | 134° |
| 2026-05-05 16:13 | -34.40076 | 149.29445 | 37184 ft | 500 kts | 133° |
| 2026-05-05 16:14 | -34.43606 | 149.36882 | 36649 ft | 505 kts | 103° |
| 2026-05-05 16:14 | -34.44650 | 149.45400 | 35386 ft | 505 kts | 96° |
| 2026-05-05 16:15 | -34.45556 | 149.53938 | 34273 ft | 505 kts | 97° |
| 2026-05-05 16:15 | -34.46532 | 149.62405 | 33055 ft | 505 kts | 98° |
| 2026-05-05 16:16 | -34.47538 | 149.70910 | 31800 ft | 503 kts | 97° |
| 2026-05-05 16:16 | -34.48545 | 149.79438 | 30543 ft | 501 kts | 97° |
| 2026-05-05 16:17 | -34.49532 | 149.87873 | 29245 ft | 498 kts | 97° |
| 2026-05-05 16:17 | -34.49881 | 149.92066 | 28575 ft | 495 kts | 88° |
| 2026-05-05 16:18 | -34.47764 | 149.99920 | 27269 ft | 485 kts | 59° |
| 2026-05-05 16:18 | -34.46029 | 150.03513 | 26614 ft | 483 kts | 58° |
| 2026-05-05 16:18 | -34.42606 | 150.10598 | 25301 ft | 479 kts | 59° |
| 2026-05-05 16:19 | -34.40970 | 150.14134 | 24662 ft | 477 kts | 60° |
| 2026-05-05 16:19 | -34.39337 | 150.17739 | 24016 ft | 475 kts | 60° |
| 2026-05-05 16:19 | -34.36206 | 150.24751 | 23181 ft | 460 kts | 60° |
| 2026-05-05 16:20 | -34.33234 | 150.31431 | 23181 ft | 428 kts | 60° |
| 2026-05-05 16:20 | -34.30489 | 150.37589 | 23168 ft | 400 kts | 60° |
| 2026-05-05 16:21 | -34.27888 | 150.43403 | 23164 ft | 373 kts | 61° |
| 2026-05-05 16:22 | -34.28677 | 150.51714 | 23097 ft | 332 kts | 143° |
| 2026-05-05 16:22 | -34.33053 | 150.53429 | 23110 ft | 314 kts | 189° |
| 2026-05-05 16:23 | -34.37113 | 150.51151 | 23110 ft | 303 kts | 231° |
| 2026-05-05 16:23 | -34.38334 | 150.48921 | 23118 ft | 300 kts | 245° |
| 2026-05-05 16:23 | -34.40325 | 150.44176 | 23129 ft | 299 kts | 244° |
| 2026-05-05 16:24 | -34.41360 | 150.41777 | 23135 ft | 300 kts | 244° |
| 2026-05-05 16:24 | -34.42368 | 150.39460 | 23137 ft | 300 kts | 247° |
| 2026-05-05 16:24 | -34.42685 | 150.34369 | 22803 ft | 301 kts | 289° |
| 2026-05-05 16:25 | -34.41617 | 150.32077 | 22419 ft | 304 kts | 310° |
| 2026-05-05 16:25 | -34.37863 | 150.29685 | 21660 ft | 313 kts | 353° |
| 2026-05-05 16:25 | -34.35665 | 150.29924 | 21291 ft | 319 kts | 16° |
| 2026-05-05 16:26 | -34.32213 | 150.33313 | 20535 ft | 326 kts | 59° |
| 2026-05-05 16:26 | -34.30072 | 150.38312 | 19771 ft | 328 kts | 62° |
| 2026-05-05 16:27 | -34.28986 | 150.40846 | 19397 ft | 329 kts | 61° |
| 2026-05-05 16:27 | -34.27892 | 150.43346 | 19030 ft | 330 kts | 63° |
| 2026-05-05 16:27 | -34.27198 | 150.46031 | 18625 ft | 332 kts | 89° |
| 2026-05-05 16:27 | -34.27586 | 150.48809 | 18243 ft | 330 kts | 115° |
| 2026-05-05 16:28 | -34.28903 | 150.51187 | 17870 ft | 327 kts | 139° |
| 2026-05-05 16:28 | -34.30859 | 150.52716 | 17492 ft | 323 kts | 162° |
| 2026-05-05 16:28 | -34.33108 | 150.53192 | 17108 ft | 318 kts | 185° |
| 2026-05-05 16:28 | -34.35320 | 150.52553 | 16723 ft | 314 kts | 208° |
| 2026-05-05 16:29 | -34.37167 | 150.50946 | 16328 ft | 311 kts | 230° |
| 2026-05-05 16:29 | -34.38375 | 150.48720 | 15955 ft | 309 kts | 243° |
| 2026-05-05 16:29 | -34.39385 | 150.46362 | 15586 ft | 310 kts | 244° |
| 2026-05-05 16:29 | -34.40378 | 150.44038 | 15225 ft | 311 kts | 244° |
| 2026-05-05 16:30 | -34.41391 | 150.41703 | 14866 ft | 311 kts | 243° |
| 2026-05-05 16:30 | -34.42404 | 150.39374 | 14499 ft | 312 kts | 246° |
| 2026-05-05 16:30 | -34.42974 | 150.36759 | 14090 ft | 311 kts | 269° |
| 2026-05-05 16:30 | -34.42600 | 150.34031 | 13699 ft | 311 kts | 292° |
| 2026-05-05 16:31 | -34.41370 | 150.31716 | 13320 ft | 311 kts | 315° |
| 2026-05-05 16:31 | -34.39517 | 150.30183 | 12928 ft | 313 kts | 337° |
| 2026-05-05 16:31 | -34.37298 | 150.29632 | 12545 ft | 314 kts | 0° |
| 2026-05-05 16:31 | -34.35124 | 150.30167 | 12430 ft | 306 kts | 23° |
| 2026-05-05 16:32 | -34.33364 | 150.31546 | 12425 ft | 295 kts | 44° |
| 2026-05-05 16:32 | -34.32158 | 150.33500 | 12439 ft | 284 kts | 60° |
| 2026-05-05 16:32 | -34.31248 | 150.35582 | 12436 ft | 272 kts | 62° |
| 2026-05-05 16:32 | -34.30388 | 150.37624 | 12428 ft | 265 kts | 62° |
| 2026-05-05 16:33 | -34.29524 | 150.39638 | 12442 ft | 267 kts | 62° |
| 2026-05-05 16:33 | -34.28658 | 150.41618 | 12444 ft | 267 kts | 61° |
| 2026-05-05 16:33 | -34.27778 | 150.43606 | 12395 ft | 278 kts | 61° |
| 2026-05-05 16:33 | -34.26775 | 150.45863 | 11977 ft | 313 kts | 61° |
| 2026-05-05 16:34 | -34.25696 | 150.48281 | 11570 ft | 319 kts | 61° |
| 2026-05-05 16:34 | -34.24609 | 150.50719 | 11226 ft | 319 kts | 61° |
| 2026-05-05 16:34 | -34.23408 | 150.53407 | 10855 ft | 319 kts | 61° |
| 2026-05-05 16:34 | -34.22221 | 150.56063 | 10491 ft | 318 kts | 61° |
| 2026-05-05 16:35 | -34.21103 | 150.58557 | 10153 ft | 317 kts | 62° |
| 2026-05-05 16:35 | -34.20014 | 150.60985 | 10058 ft | 306 kts | 62° |
| 2026-05-05 16:35 | -34.18977 | 150.63295 | 10022 ft | 295 kts | 62° |
| 2026-05-05 16:35 | -34.17932 | 150.65622 | 9988 ft | 283 kts | 61° |
| 2026-05-05 16:36 | -34.16916 | 150.67884 | 9926 ft | 276 kts | 61° |
| 2026-05-05 16:36 | -34.15965 | 150.69997 | 9628 ft | 277 kts | 61° |
| 2026-05-05 16:36 | -34.15031 | 150.72075 | 9346 ft | 277 kts | 61° |
| 2026-05-05 16:36 | -34.14102 | 150.74137 | 9079 ft | 276 kts | 61° |
| 2026-05-05 16:37 | -34.13181 | 150.76182 | 8820 ft | 275 kts | 61° |
| 2026-05-05 16:37 | -34.12256 | 150.78234 | 8562 ft | 274 kts | 61° |
| 2026-05-05 16:37 | -34.11335 | 150.80275 | 8304 ft | 273 kts | 61° |
| 2026-05-05 16:37 | -34.10424 | 150.82292 | 8049 ft | 271 kts | 61° |
| 2026-05-05 16:38 | -34.09509 | 150.84322 | 7931 ft | 274 kts | 61° |
| 2026-05-05 16:38 | -34.08579 | 150.86388 | 7966 ft | 278 kts | 61° |
| 2026-05-05 16:38 | -34.07642 | 150.88473 | 7992 ft | 279 kts | 61° |
| 2026-05-05 16:38 | -34.06709 | 150.90544 | 7988 ft | 279 kts | 61° |
| 2026-05-05 16:39 | -34.05783 | 150.92598 | 7991 ft | 279 kts | 61° |
| 2026-05-05 16:39 | -34.04853 | 150.94658 | 7990 ft | 279 kts | 61° |
| 2026-05-05 16:39 | -34.03910 | 150.96749 | 7985 ft | 279 kts | 61° |
| 2026-05-05 16:39 | -34.03134 | 150.98920 | 7982 ft | 280 kts | 81° |
| 2026-05-05 16:40 | -34.03287 | 151.01302 | 7988 ft | 281 kts | 110° |
| 2026-05-05 16:40 | -34.04373 | 151.03350 | 7783 ft | 284 kts | 133° |
| 2026-05-05 16:40 | -34.05797 | 151.05077 | 7478 ft | 284 kts | 134° |
| 2026-05-05 16:40 | -34.07217 | 151.06762 | 7181 ft | 284 kts | 139° |
| 2026-05-05 16:41 | -34.08970 | 151.08010 | 6882 ft | 284 kts | 160° |
| 2026-05-05 16:41 | -34.10943 | 151.08606 | 6626 ft | 283 kts | 168° |
| 2026-05-05 16:41 | -34.12915 | 151.09077 | 6351 ft | 282 kts | 168° |
| 2026-05-05 16:41 | -34.14863 | 151.09543 | 6065 ft | 281 kts | 168° |
| 2026-05-05 16:42 | -34.16793 | 151.10021 | 5816 ft | 279 kts | 167° |
| 2026-05-05 16:42 | -34.18711 | 151.10510 | 5533 ft | 279 kts | 167° |
| 2026-05-05 16:42 | -34.20636 | 151.11006 | 5302 ft | 276 kts | 167° |
| 2026-05-05 16:42 | -34.22512 | 151.11491 | 5107 ft | 272 kts | 166° |
| 2026-05-05 16:43 | -34.24357 | 151.11969 | 4922 ft | 268 kts | 166° |
| 2026-05-05 16:43 | -34.26182 | 151.12441 | 4724 ft | 265 kts | 166° |
| 2026-05-05 16:43 | -34.27999 | 151.12911 | 4498 ft | 264 kts | 166° |
| 2026-05-05 16:43 | -34.29762 | 151.13485 | 4310 ft | 259 kts | 152° |
| 2026-05-05 16:44 | -34.31044 | 151.14946 | 4168 ft | 257 kts | 116° |
| 2026-05-05 16:44 | -34.31485 | 151.17017 | 4042 ft | 256 kts | 90° |
| 2026-05-05 16:44 | -34.31127 | 151.19113 | 3901 ft | 256 kts | 65° |
| 2026-05-05 16:44 | -34.30054 | 151.20823 | 3772 ft | 258 kts | 40° |
| 2026-05-05 16:45 | -34.28451 | 151.21792 | 3642 ft | 261 kts | 14° |
| 2026-05-05 16:45 | -34.26616 | 151.22086 | 3534 ft | 262 kts | 8° |
| 2026-05-05 16:45 | -34.24768 | 151.22324 | 3367 ft | 261 kts | 8° |
| 2026-05-05 16:45 | -34.22938 | 151.22578 | 3129 ft | 261 kts | 9° |
| 2026-05-05 16:46 | -34.21126 | 151.22848 | 2988 ft | 255 kts | 9° |
| 2026-05-05 16:46 | -34.19340 | 151.23121 | 2980 ft | 245 kts | 9° |
| 2026-05-05 16:46 | -34.17648 | 151.23342 | 2961 ft | 235 kts | 4° |
| 2026-05-05 16:46 | -34.16009 | 151.23191 | 2897 ft | 230 kts | 352° |
| 2026-05-05 16:47 | -34.14431 | 151.22790 | 2806 ft | 228 kts | 348° |
| 2026-05-05 16:47 | -34.12875 | 151.22341 | 2739 ft | 220 kts | 349° |
| 2026-05-05 16:47 | -34.11397 | 151.21929 | 2696 ft | 203 kts | 349° |
| 2026-05-05 16:47 | -34.10037 | 151.21569 | 2657 ft | 191 kts | 350° |
| 2026-05-05 16:48 | -34.08688 | 151.21224 | 2484 ft | 193 kts | 350° |
| 2026-05-05 16:48 | -34.07336 | 151.20880 | 2215 ft | 191 kts | 350° |
| 2026-05-05 16:48 | -34.06005 | 151.20540 | 1966 ft | 187 kts | 350° |
| 2026-05-05 16:48 | -34.04692 | 151.20202 | 1703 ft | 181 kts | 349° |
| 2026-05-05 16:49 | -34.03426 | 151.19875 | 1443 ft | 177 kts | 349° |
| 2026-05-05 16:49 | -34.02208 | 151.19561 | 1195 ft | 171 kts | 349° |
| 2026-05-05 16:49 | -34.01038 | 151.19258 | 966 ft | 165 kts | 348° |
| 2026-05-05 16:49 | -33.99928 | 151.18971 | 756 ft | 158 kts | 348° |
| 2026-05-05 16:50 | -33.98863 | 151.18696 | 546 ft | 152 kts | 348° |
| 2026-05-05 16:50 | -33.97831 | 151.18442 | 326 ft | 147 kts | 348° |
| 2026-05-05 16:50 | -33.96846 | 151.18185 | 146 ft | 139 kts | 346° |
| 2026-05-05 16:50 | -33.95897 | 151.17915 | 42 ft | 128 kts | 350° |
| 2026-05-05 16:51 | -33.95104 | 151.17722 | 37 ft | 93 kts | 346° |
| 2026-05-05 16:51 | -33.94630 | 151.17592 | 37 ft | 45 kts | 341° |
| 2026-05-05 16:51 | -33.94374 | 151.17408 | 37 ft | 36 kts | 316° |
| 2026-05-05 16:51 | -33.94261 | 151.17303 | 37 ft | 10 kts | 342° |
| 2026-05-05 16:52 | -33.94185 | 151.17280 | 37 ft | 11 kts | 347° |
| 2026-05-05 16:52 | -33.94100 | 151.17259 | 37 ft | 12 kts | 348° |
| 2026-05-05 16:52 | -33.94010 | 151.17235 | 37 ft | 13 kts | 347° |
| 2026-05-05 16:52 | -33.93911 | 151.17208 | 37 ft | 14 kts | 347° |
| 2026-05-05 16:53 | -33.93807 | 151.17182 | 37 ft | 15 kts | 348° |
| 2026-05-05 16:53 | -33.93719 | 151.17128 | 37 ft | 13 kts | 288° |
| 2026-05-05 16:53 | -33.93749 | 151.17062 | 37 ft | 8 kts | 206° |
| 2026-05-05 16:53 | -33.93784 | 151.17004 | 37 ft | 8 kts | 250° |
| 2026-05-05 16:54 | -33.93793 | 151.16968 | 37 ft | 3 kts | 254° |
| 2026-05-05 16:54 | -33.93795 | 151.16958 | 37 ft | 0 kts | 255° |
| 2026-05-05 16:54 | -33.93795 | 151.16957 | 37 ft | 0 kts | 255° |